BAW81 EGLL-DGAA
Flight info
| Callsign | BAW81 |
|---|---|
| Flight time | 6h 22m |
| Altitude | 27000 |
| Route | MAXIT Y803 MID L151 SITET UN859 LGL/N0488F370 UN859 SOPIL DCT BALAN DCT EVPOK DCT NARAK DCT GAI DCT LOMRA DCT ROCAN DCT PUMAL DCT XEPLA DCT BCN DCT GARBI DCT LARPA DCT TOLSO DCT LISAS DCT MJV N859 MOGIL UB31 ZEM/N0479F380 UZ333 KAHIL UB726 GHA/N0480F390 UA615 TMS UA604 EREBO/N0486F400 DCT MIGNI DCT ABALA DCT IPUTA DCT TATAT DCT KILMO DCT LITEX LITEX1B |
| Aircraft | A35K/H-SDE2E3GHIJ3J4J5LM1ORWXY/LB1D1 |
Departure
| Time | 2026-05-03 21:05 |
|---|---|
| Airport | London Heathrow Airport (EGLL) |
Arrival
| Time | 2026-05-04 03:28 |
|---|---|
| Airport | Kotoka International Airport (DGAA) |
| Time | Latitude | Longitude | Altitude | Speed | Heading |
|---|---|---|---|---|---|
| 2026-05-03 20:26 | 51.46981 | -0.47489 | 96 ft | 0 kts | 269° |
| 2026-05-03 20:33 | 51.46981 | -0.47488 | 93 ft | 0 kts | 269° |
| 2026-05-03 20:44 | 51.46981 | -0.47477 | 93 ft | 4 kts | 269° |
| 2026-05-03 20:44 | 51.46981 | -0.47434 | 93 ft | 4 kts | 269° |
| 2026-05-03 20:44 | 51.46983 | -0.47393 | 94 ft | 4 kts | 250° |
| 2026-05-03 20:45 | 51.46997 | -0.47362 | 94 ft | 4 kts | 202° |
| 2026-05-03 20:45 | 51.47022 | -0.47354 | 96 ft | 4 kts | 180° |
| 2026-05-03 20:45 | 51.47037 | -0.47354 | 96 ft | 0 kts | 179° |
| 2026-05-03 20:50 | 51.47034 | -0.47354 | 96 ft | 0 kts | 179° |
| 2026-05-03 20:51 | 51.47030 | -0.47354 | 96 ft | 2 kts | 179° |
| 2026-05-03 20:52 | 51.47008 | -0.47354 | 94 ft | 4 kts | 180° |
| 2026-05-03 20:52 | 51.46971 | -0.47354 | 94 ft | 6 kts | 180° |
| 2026-05-03 20:52 | 51.46919 | -0.47353 | 96 ft | 8 kts | 180° |
| 2026-05-03 20:52 | 51.46856 | -0.47353 | 93 ft | 10 kts | 180° |
| 2026-05-03 20:53 | 51.46798 | -0.47352 | 93 ft | 8 kts | 178° |
| 2026-05-03 20:53 | 51.46755 | -0.47317 | 96 ft | 6 kts | 121° |
| 2026-05-03 20:53 | 51.46746 | -0.47248 | 94 ft | 7 kts | 94° |
| 2026-05-03 20:53 | 51.46744 | -0.47160 | 93 ft | 9 kts | 89° |
| 2026-05-03 20:54 | 51.46745 | -0.47049 | 94 ft | 11 kts | 89° |
| 2026-05-03 20:54 | 51.46746 | -0.46772 | 96 ft | 14 kts | 90° |
| 2026-05-03 20:54 | 51.46747 | -0.46602 | 96 ft | 16 kts | 89° |
| 2026-05-03 20:55 | 51.46747 | -0.46419 | 96 ft | 17 kts | 90° |
| 2026-05-03 20:55 | 51.46747 | -0.46218 | 96 ft | 19 kts | 90° |
| 2026-05-03 20:55 | 51.46746 | -0.46002 | 96 ft | 20 kts | 90° |
| 2026-05-03 20:55 | 51.46747 | -0.45773 | 96 ft | 21 kts | 89° |
| 2026-05-03 20:56 | 51.46749 | -0.45530 | 93 ft | 22 kts | 90° |
| 2026-05-03 20:56 | 51.46750 | -0.45278 | 93 ft | 23 kts | 90° |
| 2026-05-03 20:56 | 51.46750 | -0.45019 | 93 ft | 24 kts | 90° |
| 2026-05-03 20:56 | 51.46750 | -0.44831 | 93 ft | 15 kts | 89° |
| 2026-05-03 20:57 | 51.46751 | -0.44702 | 93 ft | 0 kts | 89° |
| 2026-05-03 20:57 | 51.46751 | -0.44686 | 93 ft | 4 kts | 89° |
| 2026-05-03 20:57 | 51.46751 | -0.44604 | 93 ft | 11 kts | 89° |
| 2026-05-03 20:57 | 51.46752 | -0.44453 | 93 ft | 16 kts | 89° |
| 2026-05-03 20:58 | 51.46753 | -0.44246 | 93 ft | 16 kts | 89° |
| 2026-05-03 20:58 | 51.46753 | -0.44233 | 93 ft | 0 kts | 90° |
| 2026-05-03 20:59 | 51.46753 | -0.44221 | 93 ft | 4 kts | 90° |
| 2026-05-03 20:59 | 51.46757 | -0.44092 | 95 ft | 13 kts | 80° |
| 2026-05-03 20:59 | 51.46768 | -0.43980 | 94 ft | 17 kts | 85° |
| 2026-05-03 20:59 | 51.46769 | -0.43928 | 94 ft | 3 kts | 89° |
| 2026-05-03 21:00 | 51.46770 | -0.43855 | 94 ft | 10 kts | 89° |
| 2026-05-03 21:00 | 51.46771 | -0.43761 | 95 ft | 15 kts | 89° |
| 2026-05-03 21:00 | 51.46770 | -0.43543 | 95 ft | 1 kts | 95° |
| 2026-05-03 21:00 | 51.46767 | -0.43515 | 94 ft | 3 kts | 105° |
| 2026-05-03 21:01 | 51.46753 | -0.43485 | 96 ft | 4 kts | 134° |
| 2026-05-03 21:01 | 51.46723 | -0.43455 | 97 ft | 5 kts | 155° |
| 2026-05-03 21:01 | 51.46679 | -0.43443 | 95 ft | 7 kts | 174° |
| 2026-05-03 21:01 | 51.46662 | -0.43441 | 94 ft | 1 kts | 176° |
| 2026-05-03 21:02 | 51.46645 | -0.43440 | 93 ft | 4 kts | 176° |
| 2026-05-03 21:02 | 51.46612 | -0.43438 | 94 ft | 6 kts | 179° |
| 2026-05-03 21:02 | 51.46565 | -0.43437 | 96 ft | 8 kts | 180° |
| 2026-05-03 21:02 | 51.46510 | -0.43450 | 96 ft | 8 kts | 206° |
| 2026-05-03 21:03 | 51.46495 | -0.43520 | 95 ft | 7 kts | 274° |
| 2026-05-03 21:03 | 51.46494 | -0.43577 | 92 ft | 0 kts | 270° |
| 2026-05-03 21:04 | 51.46494 | -0.43583 | 92 ft | 0 kts | 270° |
| 2026-05-03 21:04 | 51.46494 | -0.43587 | 92 ft | 2 kts | 270° |
| 2026-05-03 21:04 | 51.46493 | -0.43867 | 92 ft | 57 kts | 269° |
| 2026-05-03 21:04 | 51.46490 | -0.44842 | 95 ft | 116 kts | 269° |
| 2026-05-03 21:05 | 51.46484 | -0.46424 | 101 ft | 165 kts | 269° |
| 2026-05-03 21:05 | 51.46494 | -0.48288 | 635 ft | 166 kts | 271° |
| 2026-05-03 21:05 | 51.46550 | -0.50158 | 1212 ft | 170 kts | 273° |
| 2026-05-03 21:05 | 51.46590 | -0.52071 | 1679 ft | 175 kts | 266° |
| 2026-05-03 21:06 | 51.46261 | -0.53933 | 1974 ft | 176 kts | 243° |
| 2026-05-03 21:06 | 51.45620 | -0.55635 | 2248 ft | 179 kts | 238° |
| 2026-05-03 21:06 | 51.44945 | -0.57314 | 2527 ft | 180 kts | 237° |
| 2026-05-03 21:06 | 51.44122 | -0.58818 | 2804 ft | 181 kts | 220° |
| 2026-05-03 21:07 | 51.43015 | -0.59768 | 3097 ft | 185 kts | 197° |
| 2026-05-03 21:07 | 51.41721 | -0.60256 | 3389 ft | 193 kts | 191° |
| 2026-05-03 21:07 | 51.40377 | -0.60659 | 3675 ft | 201 kts | 190° |
| 2026-05-03 21:07 | 51.38973 | -0.60650 | 3963 ft | 210 kts | 168° |
| 2026-05-03 21:08 | 51.37536 | -0.59952 | 4219 ft | 223 kts | 160° |
| 2026-05-03 21:08 | 51.36037 | -0.59087 | 4520 ft | 238 kts | 160° |
| 2026-05-03 21:08 | 51.34412 | -0.58156 | 4843 ft | 256 kts | 160° |
| 2026-05-03 21:08 | 51.32704 | -0.57193 | 5126 ft | 264 kts | 161° |
| 2026-05-03 21:09 | 51.30956 | -0.56228 | 5399 ft | 266 kts | 161° |
| 2026-05-03 21:09 | 51.29161 | -0.55578 | 5678 ft | 266 kts | 178° |
| 2026-05-03 21:09 | 51.27307 | -0.55725 | 5947 ft | 267 kts | 186° |
| 2026-05-03 21:09 | 51.25552 | -0.56048 | 6053 ft | 267 kts | 187° |
| 2026-05-03 21:10 | 51.23687 | -0.56512 | 6319 ft | 271 kts | 190° |
| 2026-05-03 21:10 | 51.21837 | -0.57086 | 6961 ft | 270 kts | 192° |
| 2026-05-03 21:10 | 51.19994 | -0.57706 | 7657 ft | 270 kts | 192° |
| 2026-05-03 21:10 | 51.18157 | -0.58337 | 8307 ft | 272 kts | 192° |
| 2026-05-03 21:11 | 51.16293 | -0.58969 | 8954 ft | 274 kts | 192° |
| 2026-05-03 21:11 | 51.14417 | -0.59594 | 9619 ft | 276 kts | 192° |
| 2026-05-03 21:11 | 51.13086 | -0.60031 | 10053 ft | 278 kts | 192° |
| 2026-05-03 21:12 | 51.11361 | -0.60602 | 10513 ft | 292 kts | 193° |
| 2026-05-03 21:12 | 51.09330 | -0.61286 | 10790 ft | 302 kts | 192° |
| 2026-05-03 21:12 | 51.07226 | -0.61806 | 10996 ft | 312 kts | 185° |
| 2026-05-03 21:12 | 51.05029 | -0.61715 | 11161 ft | 321 kts | 173° |
| 2026-05-03 21:13 | 51.02833 | -0.60867 | 11320 ft | 329 kts | 163° |
| 2026-05-03 21:13 | 51.00650 | -0.59627 | 11469 ft | 339 kts | 160° |
| 2026-05-03 21:13 | 50.98418 | -0.58160 | 11906 ft | 353 kts | 158° |
| 2026-05-03 21:13 | 50.96147 | -0.56587 | 12647 ft | 358 kts | 158° |
| 2026-05-03 21:14 | 50.93862 | -0.54996 | 13438 ft | 361 kts | 158° |
| 2026-05-03 21:14 | 50.91545 | -0.53404 | 14126 ft | 365 kts | 158° |
| 2026-05-03 21:14 | 50.89188 | -0.51813 | 14785 ft | 369 kts | 159° |
| 2026-05-03 21:14 | 50.86807 | -0.50229 | 15447 ft | 373 kts | 159° |
| 2026-05-03 21:15 | 50.84398 | -0.48643 | 16101 ft | 377 kts | 159° |
| 2026-05-03 21:15 | 50.81959 | -0.47045 | 16776 ft | 381 kts | 159° |
| 2026-05-03 21:15 | 50.79495 | -0.45435 | 17440 ft | 385 kts | 160° |
| 2026-05-03 21:15 | 50.77013 | -0.43815 | 18119 ft | 389 kts | 160° |
| 2026-05-03 21:16 | 50.74501 | -0.42176 | 18760 ft | 392 kts | 160° |
| 2026-05-03 21:16 | 50.71964 | -0.40521 | 19410 ft | 395 kts | 160° |
| 2026-05-03 21:16 | 50.69422 | -0.38863 | 20091 ft | 397 kts | 160° |
| 2026-05-03 21:16 | 50.66857 | -0.37192 | 20755 ft | 400 kts | 160° |
| 2026-05-03 21:17 | 50.64308 | -0.35534 | 21403 ft | 403 kts | 160° |
| 2026-05-03 21:17 | 50.62556 | -0.34395 | 21847 ft | 405 kts | 160° |
| 2026-05-03 21:17 | 50.59091 | -0.32146 | 22705 ft | 409 kts | 161° |
| 2026-05-03 21:17 | 50.56453 | -0.30436 | 23343 ft | 411 kts | 161° |
| 2026-05-03 21:18 | 50.53801 | -0.28719 | 23907 ft | 415 kts | 161° |
| 2026-05-03 21:18 | 50.51123 | -0.26988 | 24436 ft | 417 kts | 161° |
| 2026-05-03 21:18 | 50.48428 | -0.25248 | 24967 ft | 420 kts | 161° |
| 2026-05-03 21:18 | 50.45717 | -0.23499 | 25516 ft | 423 kts | 161° |
| 2026-05-03 21:19 | 50.42989 | -0.21741 | 26037 ft | 425 kts | 161° |
| 2026-05-03 21:19 | 50.40246 | -0.19976 | 26559 ft | 428 kts | 161° |
| 2026-05-03 21:19 | 50.37480 | -0.18199 | 26881 ft | 430 kts | 161° |
| 2026-05-03 21:19 | 50.34736 | -0.16434 | 26933 ft | 423 kts | 161° |
| 2026-05-03 21:20 | 50.32022 | -0.14690 | 26934 ft | 420 kts | 161° |
| 2026-05-03 21:20 | 50.29323 | -0.12960 | 26930 ft | 419 kts | 161° |
| 2026-05-03 21:20 | 50.26627 | -0.11237 | 26931 ft | 419 kts | 161° |
| 2026-05-03 21:20 | 50.23927 | -0.09514 | 26938 ft | 419 kts | 162° |
| 2026-05-03 21:21 | 50.21233 | -0.07797 | 26934 ft | 419 kts | 162° |
| 2026-05-03 21:21 | 50.18543 | -0.06050 | 26932 ft | 419 kts | 161° |
| 2026-05-03 21:21 | 50.15863 | -0.04210 | 26941 ft | 420 kts | 160° |
| 2026-05-03 21:21 | 50.13205 | -0.02335 | 26931 ft | 420 kts | 160° |
| 2026-05-03 21:22 | 50.10524 | -0.00538 | 26938 ft | 418 kts | 164° |
| 2026-05-03 21:22 | 50.07762 | 0.00825 | 26938 ft | 415 kts | 168° |
| 2026-05-03 21:22 | 50.05018 | 0.02015 | 26934 ft | 415 kts | 169° |
| 2026-05-03 21:22 | 50.02189 | 0.03160 | 26937 ft | 415 kts | 169° |
| 2026-05-03 21:23 | 49.99391 | 0.04251 | 26934 ft | 414 kts | 170° |
| 2026-05-03 21:23 | 49.96591 | 0.05331 | 26936 ft | 414 kts | 170° |
| 2026-05-03 21:23 | 49.93794 | 0.06409 | 26937 ft | 414 kts | 170° |
| 2026-05-03 21:23 | 49.91004 | 0.07489 | 26940 ft | 414 kts | 170° |
| 2026-05-03 21:24 | 49.88207 | 0.08578 | 26941 ft | 414 kts | 170° |
| 2026-05-03 21:24 | 49.85417 | 0.09667 | 26943 ft | 414 kts | 170° |
| 2026-05-03 21:24 | 49.82629 | 0.10757 | 26946 ft | 414 kts | 170° |
| 2026-05-03 21:24 | 49.79835 | 0.11849 | 26948 ft | 413 kts | 170° |
| 2026-05-03 21:25 | 49.77048 | 0.12937 | 26949 ft | 413 kts | 170° |
| 2026-05-03 21:25 | 49.74264 | 0.14023 | 26954 ft | 413 kts | 170° |
| 2026-05-03 21:25 | 49.71475 | 0.15109 | 26956 ft | 413 kts | 170° |
| 2026-05-03 21:25 | 49.68685 | 0.16194 | 26959 ft | 413 kts | 170° |
| 2026-05-03 21:26 | 49.65905 | 0.17285 | 26962 ft | 413 kts | 170° |
| 2026-05-03 21:26 | 49.63122 | 0.18402 | 26962 ft | 413 kts | 169° |
| 2026-05-03 21:26 | 49.60343 | 0.19529 | 26965 ft | 413 kts | 169° |
| 2026-05-03 21:26 | 49.57567 | 0.20655 | 26965 ft | 413 kts | 169° |
| 2026-05-03 21:27 | 49.54796 | 0.21778 | 26965 ft | 412 kts | 169° |
| 2026-05-03 21:27 | 49.52019 | 0.22899 | 26964 ft | 412 kts | 169° |
| 2026-05-03 21:27 | 49.49242 | 0.24015 | 26965 ft | 412 kts | 170° |
| 2026-05-03 21:27 | 49.46470 | 0.25126 | 26962 ft | 412 kts | 170° |
| 2026-05-03 21:28 | 49.43694 | 0.26237 | 26958 ft | 412 kts | 170° |
| 2026-05-03 21:28 | 49.40927 | 0.27342 | 26956 ft | 411 kts | 170° |
| 2026-05-03 21:28 | 49.38191 | 0.28434 | 26951 ft | 411 kts | 170° |
| 2026-05-03 21:28 | 49.35390 | 0.29551 | 26946 ft | 411 kts | 170° |
| 2026-05-03 21:29 | 49.32623 | 0.30653 | 26952 ft | 411 kts | 170° |
| 2026-05-03 21:29 | 49.29854 | 0.31758 | 26949 ft | 411 kts | 169° |
| 2026-05-03 21:29 | 49.27097 | 0.32897 | 26948 ft | 411 kts | 169° |
| 2026-05-03 21:29 | 49.24339 | 0.34064 | 26941 ft | 411 kts | 169° |
| 2026-05-03 21:30 | 49.21585 | 0.35240 | 26945 ft | 411 kts | 169° |
| 2026-05-03 21:30 | 49.18862 | 0.36401 | 26936 ft | 411 kts | 169° |
| 2026-05-03 21:30 | 49.16108 | 0.37569 | 26940 ft | 411 kts | 169° |
| 2026-05-03 21:30 | 49.13324 | 0.38745 | 26937 ft | 410 kts | 169° |
| 2026-05-03 21:31 | 49.10605 | 0.39889 | 26942 ft | 410 kts | 169° |
| 2026-05-03 21:31 | 49.07855 | 0.41041 | 26933 ft | 410 kts | 169° |
| 2026-05-03 21:31 | 49.05101 | 0.42193 | 26941 ft | 410 kts | 169° |
| 2026-05-03 21:31 | 49.02351 | 0.43343 | 26944 ft | 410 kts | 169° |
| 2026-05-03 21:32 | 48.99600 | 0.44491 | 26939 ft | 410 kts | 169° |
| 2026-05-03 21:32 | 48.96847 | 0.45639 | 26944 ft | 410 kts | 169° |
| 2026-05-03 21:32 | 48.94100 | 0.46783 | 26945 ft | 409 kts | 169° |
| 2026-05-03 21:32 | 48.91357 | 0.47925 | 26940 ft | 409 kts | 169° |
| 2026-05-03 21:33 | 48.88615 | 0.49065 | 26943 ft | 409 kts | 169° |
| 2026-05-03 21:33 | 48.85868 | 0.50205 | 26943 ft | 408 kts | 169° |
| 2026-05-03 21:33 | 48.83140 | 0.51336 | 26944 ft | 408 kts | 169° |
| 2026-05-03 21:33 | 48.80388 | 0.52475 | 27037 ft | 411 kts | 169° |
| 2026-05-03 21:34 | 48.77602 | 0.53624 | 27303 ft | 418 kts | 169° |
| 2026-05-03 21:34 | 48.74779 | 0.54757 | 27813 ft | 420 kts | 170° |
| 2026-05-03 21:34 | 48.71946 | 0.55864 | 28385 ft | 421 kts | 171° |
| 2026-05-03 21:34 | 48.69099 | 0.56966 | 28937 ft | 423 kts | 171° |
| 2026-05-03 21:35 | 48.66247 | 0.58068 | 29496 ft | 424 kts | 171° |
| 2026-05-03 21:35 | 48.63383 | 0.59178 | 30018 ft | 426 kts | 171° |
| 2026-05-03 21:35 | 48.60548 | 0.60279 | 30428 ft | 428 kts | 171° |
| 2026-05-03 21:35 | 48.57662 | 0.61401 | 30789 ft | 430 kts | 171° |
| 2026-05-03 21:36 | 48.54754 | 0.62533 | 31154 ft | 433 kts | 171° |
| 2026-05-03 21:36 | 48.51835 | 0.63668 | 31491 ft | 435 kts | 171° |
| 2026-05-03 21:36 | 48.48890 | 0.64838 | 31835 ft | 437 kts | 171° |
| 2026-05-03 21:36 | 48.45962 | 0.66030 | 32290 ft | 437 kts | 171° |
| 2026-05-03 21:37 | 48.43042 | 0.67231 | 32792 ft | 434 kts | 171° |
| 2026-05-03 21:37 | 48.40124 | 0.68431 | 33254 ft | 433 kts | 171° |
| 2026-05-03 21:37 | 48.37214 | 0.69623 | 33693 ft | 433 kts | 171° |
| 2026-05-03 21:37 | 48.34313 | 0.70805 | 34109 ft | 431 kts | 171° |
| 2026-05-03 21:38 | 48.31404 | 0.71985 | 34360 ft | 434 kts | 171° |
| 2026-05-03 21:38 | 48.28489 | 0.73160 | 34556 ft | 436 kts | 171° |
| 2026-05-03 21:38 | 48.25544 | 0.74345 | 34775 ft | 438 kts | 171° |
| 2026-05-03 21:38 | 48.22592 | 0.75532 | 35006 ft | 440 kts | 171° |
| 2026-05-03 21:39 | 48.19623 | 0.76707 | 35227 ft | 442 kts | 171° |
| 2026-05-03 21:39 | 48.16644 | 0.77874 | 35434 ft | 444 kts | 171° |
| 2026-05-03 21:39 | 48.13651 | 0.79042 | 35667 ft | 445 kts | 171° |
| 2026-05-03 21:39 | 48.10651 | 0.80213 | 35881 ft | 447 kts | 171° |
| 2026-05-03 21:40 | 48.07629 | 0.81393 | 36078 ft | 449 kts | 170° |
| 2026-05-03 21:40 | 48.04600 | 0.82577 | 36288 ft | 451 kts | 170° |
| 2026-05-03 21:40 | 48.01556 | 0.83768 | 36471 ft | 453 kts | 170° |
| 2026-05-03 21:40 | 47.98506 | 0.84959 | 36689 ft | 454 kts | 170° |
| 2026-05-03 21:41 | 47.95435 | 0.86158 | 36876 ft | 456 kts | 170° |
| 2026-05-03 21:41 | 47.92356 | 0.87358 | 36961 ft | 460 kts | 170° |
| 2026-05-03 21:41 | 47.86134 | 0.89780 | 36965 ft | 462 kts | 170° |
| 2026-05-03 21:42 | 47.79904 | 0.92208 | 36949 ft | 462 kts | 170° |
| 2026-05-03 21:42 | 47.73683 | 0.94619 | 36951 ft | 462 kts | 170° |
| 2026-05-03 21:43 | 47.67469 | 0.97015 | 36954 ft | 462 kts | 170° |
| 2026-05-03 21:43 | 47.61241 | 0.99412 | 36959 ft | 462 kts | 170° |
| 2026-05-03 21:44 | 47.55026 | 1.01800 | 36958 ft | 462 kts | 170° |
| 2026-05-03 21:44 | 47.48805 | 1.04185 | 36958 ft | 462 kts | 170° |
| 2026-05-03 21:45 | 47.43618 | 1.05935 | 36962 ft | 458 kts | 176° |
| 2026-05-03 21:45 | 47.36292 | 1.06375 | 36960 ft | 452 kts | 184° |
| 2026-05-03 21:46 | 47.30001 | 1.06222 | 36961 ft | 452 kts | 185° |
| 2026-05-03 21:46 | 47.23708 | 1.06020 | 36959 ft | 452 kts | 185° |
| 2026-05-03 21:47 | 47.18441 | 1.05874 | 36963 ft | 452 kts | 185° |
| 2026-05-03 21:47 | 47.12152 | 1.05722 | 36963 ft | 452 kts | 185° |
| 2026-05-03 21:48 | 47.05894 | 1.05577 | 36964 ft | 453 kts | 185° |
| 2026-05-03 21:48 | 46.99598 | 1.05423 | 36964 ft | 452 kts | 185° |
| 2026-05-03 21:49 | 46.93309 | 1.05151 | 36968 ft | 452 kts | 186° |
| 2026-05-03 21:49 | 46.87008 | 1.04849 | 36967 ft | 453 kts | 186° |
| 2026-05-03 21:50 | 46.80717 | 1.04567 | 36969 ft | 453 kts | 186° |
| 2026-05-03 21:50 | 46.74418 | 1.04297 | 36968 ft | 453 kts | 186° |
| 2026-05-03 21:51 | 46.68120 | 1.04031 | 36972 ft | 453 kts | 186° |
| 2026-05-03 21:51 | 46.61819 | 1.03765 | 36974 ft | 453 kts | 186° |
| 2026-05-03 21:52 | 46.55513 | 1.03499 | 36978 ft | 453 kts | 186° |
| 2026-05-03 21:52 | 46.49189 | 1.04196 | 36984 ft | 461 kts | 174° |
| 2026-05-03 21:53 | 46.42902 | 1.06144 | 36987 ft | 463 kts | 172° |
| 2026-05-03 21:53 | 46.36631 | 1.08288 | 37001 ft | 463 kts | 171° |
| 2026-05-03 21:54 | 46.30365 | 1.10423 | 36995 ft | 463 kts | 172° |
| 2026-05-03 21:54 | 46.24128 | 1.12511 | 36998 ft | 463 kts | 172° |
| 2026-05-03 21:55 | 46.17859 | 1.14589 | 37000 ft | 462 kts | 172° |
| 2026-05-03 21:55 | 46.11593 | 1.16661 | 37010 ft | 462 kts | 172° |
| 2026-05-03 21:56 | 46.05319 | 1.18732 | 37013 ft | 462 kts | 172° |
| 2026-05-03 21:56 | 45.99045 | 1.20798 | 37018 ft | 462 kts | 172° |
| 2026-05-03 21:57 | 45.92774 | 1.22859 | 37018 ft | 462 kts | 172° |
| 2026-05-03 21:57 | 45.86508 | 1.24913 | 37019 ft | 462 kts | 172° |
| 2026-05-03 21:58 | 45.80232 | 1.26965 | 37018 ft | 462 kts | 172° |
| 2026-05-03 21:58 | 45.73959 | 1.29012 | 37018 ft | 463 kts | 172° |
| 2026-05-03 21:59 | 45.67671 | 1.31060 | 37023 ft | 463 kts | 172° |
| 2026-05-03 21:59 | 45.61386 | 1.33101 | 37021 ft | 464 kts | 172° |
| 2026-05-03 22:00 | 45.55088 | 1.35142 | 37021 ft | 464 kts | 172° |
| 2026-05-03 22:00 | 45.48780 | 1.37182 | 37019 ft | 465 kts | 172° |
| 2026-05-03 22:01 | 45.42501 | 1.39214 | 37020 ft | 466 kts | 172° |
| 2026-05-03 22:01 | 45.36136 | 1.41261 | 37021 ft | 466 kts | 172° |
| 2026-05-03 22:02 | 45.29799 | 1.43293 | 37022 ft | 467 kts | 172° |
| 2026-05-03 22:02 | 45.23463 | 1.45322 | 37021 ft | 467 kts | 172° |
| 2026-05-03 22:03 | 45.17119 | 1.47350 | 37017 ft | 467 kts | 172° |
| 2026-05-03 22:03 | 45.10818 | 1.49361 | 37020 ft | 467 kts | 172° |
| 2026-05-03 22:04 | 45.04485 | 1.51377 | 37016 ft | 467 kts | 172° |
| 2026-05-03 22:04 | 44.98148 | 1.53388 | 37018 ft | 466 kts | 172° |
| 2026-05-03 22:05 | 44.91827 | 1.55392 | 37018 ft | 466 kts | 172° |
| 2026-05-03 22:05 | 44.85502 | 1.57391 | 37016 ft | 465 kts | 172° |
| 2026-05-03 22:06 | 44.79186 | 1.59382 | 36996 ft | 464 kts | 172° |
| 2026-05-03 22:06 | 44.72889 | 1.61363 | 37002 ft | 464 kts | 172° |
| 2026-05-03 22:07 | 44.66593 | 1.63340 | 36995 ft | 463 kts | 172° |
| 2026-05-03 22:07 | 44.60301 | 1.65310 | 37002 ft | 463 kts | 172° |
| 2026-05-03 22:08 | 44.54014 | 1.67276 | 36987 ft | 463 kts | 172° |
| 2026-05-03 22:08 | 44.47726 | 1.69236 | 36988 ft | 463 kts | 172° |
| 2026-05-03 22:09 | 44.41431 | 1.71194 | 36980 ft | 463 kts | 172° |
| 2026-05-03 22:10 | 44.31972 | 1.74130 | 36981 ft | 465 kts | 172° |
| 2026-05-03 22:10 | 44.25646 | 1.75969 | 36980 ft | 464 kts | 174° |
| 2026-05-03 22:11 | 44.19279 | 1.77320 | 36983 ft | 463 kts | 176° |
| 2026-05-03 22:11 | 44.12900 | 1.78609 | 36983 ft | 464 kts | 175° |
| 2026-05-03 22:12 | 44.06520 | 1.79968 | 36984 ft | 464 kts | 175° |
| 2026-05-03 22:12 | 44.00134 | 1.81368 | 36982 ft | 464 kts | 175° |
| 2026-05-03 22:13 | 43.93756 | 1.82758 | 36977 ft | 464 kts | 176° |
| 2026-05-03 22:13 | 43.87384 | 1.83501 | 36975 ft | 461 kts | 181° |
| 2026-05-03 22:14 | 43.80970 | 1.83934 | 36973 ft | 462 kts | 181° |
| 2026-05-03 22:14 | 43.74545 | 1.84450 | 36971 ft | 462 kts | 180° |
| 2026-05-03 22:15 | 43.68124 | 1.85051 | 36967 ft | 463 kts | 180° |
| 2026-05-03 22:15 | 43.61699 | 1.85678 | 36966 ft | 463 kts | 180° |
| 2026-05-03 22:16 | 43.55265 | 1.86305 | 36965 ft | 463 kts | 180° |
| 2026-05-03 22:16 | 43.48833 | 1.86923 | 36963 ft | 464 kts | 180° |
| 2026-05-03 22:17 | 43.42397 | 1.87540 | 36976 ft | 464 kts | 180° |
| 2026-05-03 22:17 | 43.35953 | 1.88157 | 36975 ft | 464 kts | 180° |
| 2026-05-03 22:18 | 43.29500 | 1.88774 | 36971 ft | 465 kts | 180° |
| 2026-05-03 22:18 | 43.23047 | 1.89392 | 36974 ft | 465 kts | 180° |
| 2026-05-03 22:19 | 43.16589 | 1.90010 | 36978 ft | 465 kts | 180° |
| 2026-05-03 22:19 | 43.10127 | 1.90625 | 36981 ft | 466 kts | 180° |
| 2026-05-03 22:20 | 43.03665 | 1.91238 | 36981 ft | 466 kts | 180° |
| 2026-05-03 22:20 | 42.97241 | 1.91845 | 36984 ft | 466 kts | 180° |
| 2026-05-03 22:21 | 42.90773 | 1.92457 | 36993 ft | 466 kts | 180° |
| 2026-05-03 22:21 | 42.84303 | 1.93070 | 36993 ft | 466 kts | 180° |
| 2026-05-03 22:22 | 42.77832 | 1.93683 | 36995 ft | 466 kts | 180° |
| 2026-05-03 22:22 | 42.71359 | 1.94292 | 37007 ft | 466 kts | 180° |
| 2026-05-03 22:23 | 42.64910 | 1.94941 | 37004 ft | 466 kts | 178° |
| 2026-05-03 22:23 | 42.58468 | 1.96208 | 37013 ft | 468 kts | 175° |
| 2026-05-03 22:24 | 42.52046 | 1.97672 | 37023 ft | 467 kts | 175° |
| 2026-05-03 22:24 | 42.45624 | 1.99047 | 37022 ft | 467 kts | 175° |
| 2026-05-03 22:25 | 42.39191 | 2.00352 | 37029 ft | 468 kts | 176° |
| 2026-05-03 22:25 | 42.32745 | 2.01506 | 37034 ft | 466 kts | 179° |
| 2026-05-03 22:26 | 42.26282 | 2.02045 | 37042 ft | 465 kts | 181° |
| 2026-05-03 22:26 | 42.19813 | 2.02501 | 37044 ft | 466 kts | 181° |
| 2026-05-03 22:27 | 42.13328 | 2.03052 | 37046 ft | 467 kts | 180° |
| 2026-05-03 22:27 | 42.06836 | 2.03661 | 37043 ft | 468 kts | 180° |
| 2026-05-03 22:28 | 42.00346 | 2.04280 | 37041 ft | 468 kts | 180° |
| 2026-05-03 22:28 | 41.93847 | 2.04896 | 37044 ft | 469 kts | 180° |
| 2026-05-03 22:29 | 41.87334 | 2.05510 | 37040 ft | 469 kts | 180° |
| 2026-05-03 22:29 | 41.80826 | 2.06120 | 37046 ft | 470 kts | 180° |
| 2026-05-03 22:30 | 41.74281 | 2.06730 | 37046 ft | 470 kts | 180° |
| 2026-05-03 22:30 | 41.67752 | 2.07339 | 37047 ft | 471 kts | 180° |
| 2026-05-03 22:31 | 41.61253 | 2.07946 | 37045 ft | 471 kts | 180° |
| 2026-05-03 22:31 | 41.54706 | 2.08556 | 37047 ft | 472 kts | 180° |
| 2026-05-03 22:32 | 41.48142 | 2.09166 | 37048 ft | 473 kts | 180° |
| 2026-05-03 22:32 | 41.41576 | 2.09775 | 37047 ft | 473 kts | 180° |
| 2026-05-03 22:33 | 41.35010 | 2.10384 | 37018 ft | 473 kts | 180° |
| 2026-05-03 22:33 | 41.28465 | 2.11632 | 37022 ft | 480 kts | 171° |
| 2026-05-03 22:34 | 41.21978 | 2.13822 | 37022 ft | 482 kts | 169° |
| 2026-05-03 22:34 | 41.15497 | 2.16165 | 37018 ft | 483 kts | 169° |
| 2026-05-03 22:35 | 41.10111 | 2.18111 | 37021 ft | 483 kts | 169° |
| 2026-05-03 22:35 | 41.03619 | 2.20430 | 37018 ft | 483 kts | 170° |
| 2026-05-03 22:36 | 40.97119 | 2.22735 | 37003 ft | 483 kts | 170° |
| 2026-05-03 22:36 | 40.90622 | 2.25030 | 37010 ft | 483 kts | 170° |
| 2026-05-03 22:37 | 40.84124 | 2.27322 | 37012 ft | 484 kts | 170° |
| 2026-05-03 22:37 | 40.77613 | 2.29619 | 37008 ft | 484 kts | 170° |
| 2026-05-03 22:38 | 40.71098 | 2.31910 | 37010 ft | 485 kts | 171° |
| 2026-05-03 22:38 | 40.64578 | 2.34192 | 37008 ft | 485 kts | 171° |
| 2026-05-03 22:39 | 40.58052 | 2.36474 | 37010 ft | 485 kts | 171° |
| 2026-05-03 22:39 | 40.51524 | 2.38754 | 37008 ft | 486 kts | 171° |
| 2026-05-03 22:40 | 40.44982 | 2.41041 | 37009 ft | 486 kts | 171° |
| 2026-05-03 22:40 | 40.38441 | 2.43315 | 37010 ft | 487 kts | 171° |
| 2026-05-03 22:41 | 40.31889 | 2.45586 | 37007 ft | 487 kts | 171° |
| 2026-05-03 22:41 | 40.25335 | 2.47856 | 37004 ft | 488 kts | 171° |
| 2026-05-03 22:42 | 40.18773 | 2.50126 | 37008 ft | 488 kts | 171° |
| 2026-05-03 22:42 | 40.12195 | 2.52401 | 37007 ft | 489 kts | 171° |
| 2026-05-03 22:43 | 40.05615 | 2.54664 | 37011 ft | 489 kts | 172° |
| 2026-05-03 22:43 | 39.99035 | 2.56923 | 37011 ft | 489 kts | 172° |
| 2026-05-03 22:44 | 39.92480 | 2.59171 | 37011 ft | 490 kts | 172° |
| 2026-05-03 22:44 | 39.85932 | 2.61413 | 37012 ft | 490 kts | 172° |
| 2026-05-03 22:45 | 39.79335 | 2.63667 | 37014 ft | 490 kts | 172° |
| 2026-05-03 22:45 | 39.72739 | 2.65916 | 37017 ft | 490 kts | 172° |
| 2026-05-03 22:46 | 39.66143 | 2.68166 | 37015 ft | 490 kts | 172° |
| 2026-05-03 22:46 | 39.59549 | 2.70404 | 37022 ft | 491 kts | 172° |
| 2026-05-03 22:47 | 39.52933 | 2.72644 | 37018 ft | 491 kts | 172° |
| 2026-05-03 22:47 | 39.46321 | 2.74881 | 37018 ft | 491 kts | 172° |
| 2026-05-03 22:48 | 39.39715 | 2.77123 | 37019 ft | 491 kts | 171° |
| 2026-05-03 22:48 | 39.33099 | 2.79420 | 37020 ft | 492 kts | 171° |
| 2026-05-03 22:49 | 39.26488 | 2.81717 | 37016 ft | 492 kts | 171° |
| 2026-05-03 22:49 | 39.19878 | 2.84001 | 37019 ft | 492 kts | 171° |
| 2026-05-03 22:50 | 39.13266 | 2.86277 | 37019 ft | 492 kts | 171° |
| 2026-05-03 22:50 | 39.06649 | 2.88549 | 37020 ft | 492 kts | 171° |
| 2026-05-03 22:51 | 39.00029 | 2.90820 | 37020 ft | 492 kts | 171° |
| 2026-05-03 22:51 | 38.93413 | 2.93096 | 37018 ft | 492 kts | 171° |
| 2026-05-03 22:52 | 38.86800 | 2.95355 | 37021 ft | 492 kts | 172° |
| 2026-05-03 22:52 | 38.80191 | 2.97607 | 37018 ft | 492 kts | 172° |
| 2026-05-03 22:53 | 38.73585 | 2.99852 | 37017 ft | 492 kts | 172° |
| 2026-05-03 22:53 | 38.66997 | 3.02087 | 37020 ft | 492 kts | 172° |
| 2026-05-03 22:54 | 38.60376 | 3.04332 | 37059 ft | 492 kts | 173° |
| 2026-05-03 22:54 | 38.53783 | 3.06566 | 37024 ft | 489 kts | 173° |
| 2026-05-03 22:55 | 38.47205 | 3.08781 | 37025 ft | 489 kts | 173° |
| 2026-05-03 22:55 | 38.40621 | 3.10994 | 37025 ft | 489 kts | 173° |
| 2026-05-03 22:56 | 38.34040 | 3.13204 | 37026 ft | 490 kts | 173° |
| 2026-05-03 22:56 | 38.27449 | 3.15416 | 37022 ft | 490 kts | 173° |
| 2026-05-03 22:57 | 38.20849 | 3.17630 | 37023 ft | 490 kts | 173° |
| 2026-05-03 22:57 | 38.14257 | 3.19837 | 37025 ft | 490 kts | 173° |
| 2026-05-03 22:58 | 38.07647 | 3.21912 | 37023 ft | 487 kts | 176° |
| 2026-05-03 22:58 | 38.01022 | 3.23700 | 37016 ft | 487 kts | 176° |
| 2026-05-03 22:59 | 37.94392 | 3.25481 | 37021 ft | 487 kts | 176° |
| 2026-05-03 22:59 | 37.87771 | 3.27307 | 37016 ft | 487 kts | 176° |
| 2026-05-03 23:00 | 37.81143 | 3.29155 | 37024 ft | 488 kts | 176° |
| 2026-05-03 23:00 | 37.74511 | 3.31004 | 37025 ft | 488 kts | 176° |
| 2026-05-03 23:01 | 37.67885 | 3.32846 | 37018 ft | 488 kts | 176° |
| 2026-05-03 23:01 | 37.61254 | 3.34684 | 37020 ft | 488 kts | 176° |
| 2026-05-03 23:02 | 37.54624 | 3.36519 | 37012 ft | 488 kts | 176° |
| 2026-05-03 23:02 | 37.47990 | 3.38351 | 37007 ft | 488 kts | 176° |
| 2026-05-03 23:03 | 37.41349 | 3.40181 | 37010 ft | 488 kts | 176° |
| 2026-05-03 23:03 | 37.34713 | 3.42007 | 37007 ft | 489 kts | 176° |
| 2026-05-03 23:04 | 37.28073 | 3.43831 | 37009 ft | 489 kts | 176° |
| 2026-05-03 23:04 | 37.21425 | 3.45654 | 37008 ft | 489 kts | 176° |
| 2026-05-03 23:05 | 37.14811 | 3.47464 | 37010 ft | 489 kts | 176° |
| 2026-05-03 23:05 | 37.08157 | 3.49283 | 37007 ft | 490 kts | 176° |
| 2026-05-03 23:06 | 37.01492 | 3.51101 | 37010 ft | 490 kts | 176° |
| 2026-05-03 23:06 | 36.94829 | 3.52916 | 37006 ft | 490 kts | 176° |
| 2026-05-03 23:07 | 36.88149 | 3.54732 | 37017 ft | 490 kts | 176° |
| 2026-05-03 23:07 | 36.81484 | 3.56542 | 37046 ft | 490 kts | 176° |
| 2026-05-03 23:07 | 36.78153 | 3.57440 | 37343 ft | 488 kts | 176° |
| 2026-05-03 23:08 | 36.74833 | 3.58173 | 37768 ft | 481 kts | 180° |
| 2026-05-03 23:08 | 36.71521 | 3.58738 | 38010 ft | 480 kts | 181° |
| 2026-05-03 23:08 | 36.68214 | 3.59236 | 38022 ft | 479 kts | 182° |
| 2026-05-03 23:09 | 36.61594 | 3.60243 | 38025 ft | 479 kts | 181° |
| 2026-05-03 23:09 | 36.54973 | 3.61339 | 38032 ft | 480 kts | 180° |
| 2026-05-03 23:10 | 36.48360 | 3.62481 | 38040 ft | 480 kts | 180° |
| 2026-05-03 23:10 | 36.41748 | 3.63632 | 38053 ft | 480 kts | 180° |
| 2026-05-03 23:11 | 36.35134 | 3.64776 | 38063 ft | 480 kts | 180° |
| 2026-05-03 23:11 | 36.28558 | 3.65911 | 38072 ft | 480 kts | 180° |
| 2026-05-03 23:12 | 36.21932 | 3.67051 | 38076 ft | 481 kts | 180° |
| 2026-05-03 23:12 | 36.15308 | 3.68188 | 38089 ft | 481 kts | 180° |
| 2026-05-03 23:13 | 36.08682 | 3.69325 | 38097 ft | 481 kts | 180° |
| 2026-05-03 23:13 | 36.02053 | 3.70459 | 38110 ft | 480 kts | 180° |
| 2026-05-03 23:14 | 35.95432 | 3.71591 | 38112 ft | 481 kts | 180° |
| 2026-05-03 23:14 | 35.88797 | 3.72722 | 38114 ft | 481 kts | 180° |
| 2026-05-03 23:15 | 35.82166 | 3.73851 | 38115 ft | 482 kts | 180° |
| 2026-05-03 23:15 | 35.75522 | 3.74981 | 38114 ft | 482 kts | 180° |
| 2026-05-03 23:16 | 35.68877 | 3.76109 | 38106 ft | 482 kts | 180° |
| 2026-05-03 23:16 | 35.62238 | 3.77239 | 38114 ft | 482 kts | 180° |
| 2026-05-03 23:17 | 35.55595 | 3.78363 | 38108 ft | 482 kts | 180° |
| 2026-05-03 23:17 | 35.48951 | 3.79483 | 38108 ft | 482 kts | 180° |
| 2026-05-03 23:18 | 35.42300 | 3.80604 | 38106 ft | 482 kts | 180° |
| 2026-05-03 23:18 | 35.35661 | 3.81724 | 38109 ft | 482 kts | 180° |
| 2026-05-03 23:19 | 35.29015 | 3.82841 | 38108 ft | 482 kts | 180° |
| 2026-05-03 23:19 | 35.22414 | 3.83949 | 38106 ft | 482 kts | 180° |
| 2026-05-03 23:20 | 35.15762 | 3.85063 | 38112 ft | 482 kts | 180° |
| 2026-05-03 23:20 | 35.09115 | 3.86176 | 38116 ft | 482 kts | 180° |
| 2026-05-03 23:21 | 35.02466 | 3.87287 | 38120 ft | 482 kts | 180° |
| 2026-05-03 23:21 | 34.96937 | 3.88209 | 38127 ft | 483 kts | 179° |
| 2026-05-03 23:22 | 34.86950 | 3.89872 | 38135 ft | 483 kts | 179° |
| 2026-05-03 23:22 | 34.80285 | 3.90979 | 38140 ft | 484 kts | 179° |
| 2026-05-03 23:23 | 34.73612 | 3.92086 | 38141 ft | 484 kts | 179° |
| 2026-05-03 23:23 | 34.66942 | 3.93192 | 38143 ft | 484 kts | 179° |
| 2026-05-03 23:24 | 34.60272 | 3.94294 | 38145 ft | 484 kts | 179° |
| 2026-05-03 23:24 | 34.53583 | 3.95398 | 38143 ft | 485 kts | 179° |
| 2026-05-03 23:25 | 34.46901 | 3.96499 | 38144 ft | 485 kts | 179° |
| 2026-05-03 23:25 | 34.40212 | 3.97599 | 38144 ft | 485 kts | 179° |
| 2026-05-03 23:26 | 34.33523 | 3.98698 | 38139 ft | 486 kts | 179° |
| 2026-05-03 23:26 | 34.26813 | 3.99798 | 38136 ft | 486 kts | 179° |
| 2026-05-03 23:27 | 34.20103 | 4.00898 | 38138 ft | 487 kts | 179° |
| 2026-05-03 23:27 | 34.13396 | 4.01993 | 38125 ft | 486 kts | 179° |
| 2026-05-03 23:28 | 34.06735 | 4.02098 | 38136 ft | 474 kts | 192° |
| 2026-05-03 23:28 | 34.00235 | 4.01246 | 38133 ft | 472 kts | 194° |
| 2026-05-03 23:29 | 33.93679 | 4.00243 | 38135 ft | 472 kts | 194° |
| 2026-05-03 23:29 | 33.87200 | 3.99255 | 38136 ft | 472 kts | 194° |
| 2026-05-03 23:30 | 33.80669 | 3.98285 | 38123 ft | 473 kts | 193° |
| 2026-05-03 23:30 | 33.74135 | 3.97325 | 38127 ft | 473 kts | 193° |
| 2026-05-03 23:31 | 33.67595 | 3.96368 | 38131 ft | 473 kts | 193° |
| 2026-05-03 23:31 | 33.61054 | 3.95411 | 38134 ft | 474 kts | 193° |
| 2026-05-03 23:32 | 33.54512 | 3.94456 | 38138 ft | 474 kts | 193° |
| 2026-05-03 23:32 | 33.47969 | 3.93501 | 38134 ft | 474 kts | 193° |
| 2026-05-03 23:33 | 33.41423 | 3.92547 | 38133 ft | 474 kts | 193° |
| 2026-05-03 23:33 | 33.34874 | 3.91594 | 38133 ft | 474 kts | 193° |
| 2026-05-03 23:34 | 33.28330 | 3.90644 | 38133 ft | 474 kts | 193° |
| 2026-05-03 23:34 | 33.21778 | 3.89693 | 38128 ft | 474 kts | 193° |
| 2026-05-03 23:35 | 33.15229 | 3.88745 | 38132 ft | 474 kts | 193° |
| 2026-05-03 23:35 | 33.08677 | 3.87797 | 38126 ft | 474 kts | 193° |
| 2026-05-03 23:36 | 33.02131 | 3.86852 | 38124 ft | 474 kts | 193° |
| 2026-05-03 23:36 | 32.95578 | 3.85902 | 38123 ft | 474 kts | 193° |
| 2026-05-03 23:37 | 32.89071 | 3.84957 | 38127 ft | 474 kts | 193° |
| 2026-05-03 23:37 | 32.82480 | 3.84002 | 38120 ft | 474 kts | 193° |
| 2026-05-03 23:38 | 32.75929 | 3.83054 | 38123 ft | 474 kts | 193° |
| 2026-05-03 23:38 | 32.69428 | 3.82116 | 38131 ft | 474 kts | 193° |
| 2026-05-03 23:39 | 32.62907 | 3.81176 | 38129 ft | 474 kts | 193° |
| 2026-05-03 23:39 | 32.56362 | 3.80233 | 38146 ft | 474 kts | 193° |
| 2026-05-03 23:40 | 32.49810 | 3.79292 | 38152 ft | 474 kts | 193° |
| 2026-05-03 23:40 | 32.43262 | 3.78354 | 38157 ft | 474 kts | 193° |
| 2026-05-03 23:41 | 32.39953 | 3.78091 | 38271 ft | 480 kts | 186° |
| 2026-05-03 23:41 | 32.36599 | 3.78345 | 38567 ft | 485 kts | 179° |
| 2026-05-03 23:41 | 32.33252 | 3.78856 | 38863 ft | 485 kts | 178° |
| 2026-05-03 23:41 | 32.29912 | 3.79447 | 39064 ft | 486 kts | 177° |
| 2026-05-03 23:42 | 32.23205 | 3.80718 | 39144 ft | 489 kts | 177° |
| 2026-05-03 23:42 | 32.16492 | 3.81995 | 39129 ft | 488 kts | 177° |
| 2026-05-03 23:43 | 32.09771 | 3.83245 | 39120 ft | 489 kts | 177° |
| 2026-05-03 23:43 | 32.03056 | 3.84479 | 39106 ft | 489 kts | 177° |
| 2026-05-03 23:44 | 31.96340 | 3.85710 | 39102 ft | 489 kts | 177° |
| 2026-05-03 23:44 | 31.89618 | 3.86942 | 39099 ft | 489 kts | 177° |
| 2026-05-03 23:45 | 31.82893 | 3.88174 | 39098 ft | 489 kts | 177° |
| 2026-05-03 23:45 | 31.76165 | 3.89403 | 39099 ft | 489 kts | 177° |
| 2026-05-03 23:46 | 31.69439 | 3.90630 | 39093 ft | 489 kts | 177° |
| 2026-05-03 23:46 | 31.62709 | 3.91856 | 39094 ft | 489 kts | 177° |
| 2026-05-03 23:47 | 31.55983 | 3.93079 | 39090 ft | 489 kts | 177° |
| 2026-05-03 23:47 | 31.49251 | 3.94303 | 39087 ft | 490 kts | 177° |
| 2026-05-03 23:48 | 31.42514 | 3.95526 | 39087 ft | 490 kts | 177° |
| 2026-05-03 23:48 | 31.35831 | 3.96736 | 39084 ft | 489 kts | 177° |
| 2026-05-03 23:49 | 31.29100 | 3.97954 | 39080 ft | 489 kts | 177° |
| 2026-05-03 23:49 | 31.22365 | 3.99171 | 39079 ft | 489 kts | 177° |
| 2026-05-03 23:50 | 31.16769 | 4.00180 | 39082 ft | 490 kts | 177° |
| 2026-05-03 23:50 | 31.08897 | 4.01598 | 39076 ft | 489 kts | 177° |
| 2026-05-03 23:51 | 31.02165 | 4.02809 | 39078 ft | 490 kts | 177° |
| 2026-05-03 23:51 | 30.95430 | 4.04019 | 39074 ft | 490 kts | 177° |
| 2026-05-03 23:52 | 30.88686 | 4.05228 | 39072 ft | 490 kts | 177° |
| 2026-05-03 23:52 | 30.81942 | 4.06436 | 39070 ft | 491 kts | 177° |
| 2026-05-03 23:53 | 30.75197 | 4.07642 | 39065 ft | 491 kts | 177° |
| 2026-05-03 23:53 | 30.68438 | 4.08849 | 39062 ft | 491 kts | 177° |
| 2026-05-03 23:54 | 30.61718 | 4.10047 | 39062 ft | 492 kts | 177° |
| 2026-05-03 23:54 | 30.54952 | 4.11252 | 39065 ft | 493 kts | 177° |
| 2026-05-03 23:55 | 30.48170 | 4.12458 | 39061 ft | 493 kts | 177° |
| 2026-05-03 23:55 | 30.41390 | 4.13662 | 39057 ft | 493 kts | 177° |
| 2026-05-03 23:56 | 30.34600 | 4.14866 | 39057 ft | 494 kts | 177° |
| 2026-05-03 23:56 | 30.27809 | 4.16069 | 39052 ft | 494 kts | 177° |
| 2026-05-03 23:57 | 30.21014 | 4.17270 | 39050 ft | 494 kts | 177° |
| 2026-05-03 23:57 | 30.14207 | 4.18472 | 39047 ft | 495 kts | 177° |
| 2026-05-03 23:58 | 30.07396 | 4.19674 | 39048 ft | 495 kts | 177° |
| 2026-05-03 23:58 | 30.00585 | 4.20873 | 39045 ft | 496 kts | 177° |
| 2026-05-03 23:59 | 29.93764 | 4.22072 | 39046 ft | 496 kts | 177° |
| 2026-05-03 23:59 | 29.86931 | 4.23272 | 39043 ft | 496 kts | 177° |
| 2026-05-04 00:00 | 29.80107 | 4.24469 | 39041 ft | 496 kts | 177° |
| 2026-05-04 00:00 | 29.73281 | 4.25665 | 39040 ft | 496 kts | 177° |
| 2026-05-04 00:01 | 29.66447 | 4.26867 | 39036 ft | 496 kts | 177° |
| 2026-05-04 00:01 | 29.59666 | 4.28080 | 39032 ft | 497 kts | 177° |
| 2026-05-04 00:02 | 29.52842 | 4.29300 | 39030 ft | 496 kts | 177° |
| 2026-05-04 00:02 | 29.46022 | 4.30514 | 39031 ft | 496 kts | 177° |
| 2026-05-04 00:03 | 29.39198 | 4.31726 | 39030 ft | 496 kts | 177° |
| 2026-05-04 00:03 | 29.32380 | 4.32934 | 39019 ft | 496 kts | 177° |
| 2026-05-04 00:04 | 29.25564 | 4.34143 | 39021 ft | 496 kts | 177° |
| 2026-05-04 00:04 | 29.18742 | 4.35349 | 39020 ft | 496 kts | 177° |
| 2026-05-04 00:05 | 29.11924 | 4.36552 | 39028 ft | 496 kts | 177° |
| 2026-05-04 00:05 | 29.05105 | 4.37755 | 39014 ft | 496 kts | 177° |
| 2026-05-04 00:06 | 28.98290 | 4.38955 | 39014 ft | 496 kts | 177° |
| 2026-05-04 00:06 | 28.91473 | 4.40154 | 39015 ft | 496 kts | 177° |
| 2026-05-04 00:07 | 28.84650 | 4.41352 | 39013 ft | 496 kts | 177° |
| 2026-05-04 00:07 | 28.77825 | 4.42549 | 39013 ft | 496 kts | 177° |
| 2026-05-04 00:08 | 28.71003 | 4.43745 | 39009 ft | 496 kts | 177° |
| 2026-05-04 00:08 | 28.64175 | 4.44939 | 39008 ft | 496 kts | 177° |
| 2026-05-04 00:09 | 28.57393 | 4.46124 | 39009 ft | 496 kts | 177° |
| 2026-05-04 00:09 | 28.50567 | 4.47316 | 39005 ft | 497 kts | 177° |
| 2026-05-04 00:10 | 28.43735 | 4.48529 | 39004 ft | 497 kts | 177° |
| 2026-05-04 00:10 | 28.36904 | 4.49759 | 39002 ft | 497 kts | 177° |
| 2026-05-04 00:11 | 28.30069 | 4.50986 | 38998 ft | 497 kts | 177° |
| 2026-05-04 00:11 | 28.23229 | 4.52210 | 38996 ft | 498 kts | 177° |
| 2026-05-04 00:12 | 28.17542 | 4.53225 | 38990 ft | 498 kts | 177° |
| 2026-05-04 00:12 | 28.10701 | 4.54445 | 38989 ft | 498 kts | 177° |
| 2026-05-04 00:13 | 28.03860 | 4.55663 | 38985 ft | 498 kts | 178° |
| 2026-05-04 00:13 | 27.97013 | 4.56881 | 38984 ft | 498 kts | 178° |
| 2026-05-04 00:14 | 27.90162 | 4.58099 | 38978 ft | 498 kts | 178° |
| 2026-05-04 00:14 | 27.83307 | 4.59315 | 38974 ft | 499 kts | 178° |
| 2026-05-04 00:15 | 27.76452 | 4.60530 | 38972 ft | 499 kts | 178° |
| 2026-05-04 00:15 | 27.69587 | 4.61744 | 38969 ft | 500 kts | 178° |
| 2026-05-04 00:16 | 27.62710 | 4.62960 | 38967 ft | 500 kts | 178° |
| 2026-05-04 00:16 | 27.55836 | 4.64174 | 38961 ft | 500 kts | 178° |
| 2026-05-04 00:17 | 27.48951 | 4.65388 | 38957 ft | 501 kts | 178° |
| 2026-05-04 00:17 | 27.42063 | 4.66601 | 38955 ft | 501 kts | 178° |
| 2026-05-04 00:18 | 27.35178 | 4.67812 | 38951 ft | 501 kts | 178° |
| 2026-05-04 00:18 | 27.28278 | 4.69024 | 38950 ft | 502 kts | 178° |
| 2026-05-04 00:19 | 27.21381 | 4.70234 | 38946 ft | 502 kts | 178° |
| 2026-05-04 00:19 | 27.14489 | 4.71442 | 38947 ft | 501 kts | 178° |
| 2026-05-04 00:20 | 27.07588 | 4.72649 | 38937 ft | 502 kts | 178° |
| 2026-05-04 00:20 | 27.00735 | 4.73847 | 38941 ft | 502 kts | 178° |
| 2026-05-04 00:21 | 26.93834 | 4.75051 | 38938 ft | 502 kts | 178° |
| 2026-05-04 00:21 | 26.86938 | 4.76254 | 38934 ft | 502 kts | 178° |
| 2026-05-04 00:22 | 26.80035 | 4.77455 | 38928 ft | 502 kts | 178° |
| 2026-05-04 00:22 | 26.73134 | 4.78656 | 38928 ft | 502 kts | 179° |
| 2026-05-04 00:23 | 26.66228 | 4.79856 | 38926 ft | 502 kts | 179° |
| 2026-05-04 00:23 | 26.59321 | 4.81054 | 38923 ft | 502 kts | 179° |
| 2026-05-04 00:24 | 26.52415 | 4.82250 | 38926 ft | 502 kts | 179° |
| 2026-05-04 00:24 | 26.45507 | 4.83445 | 38926 ft | 502 kts | 179° |
| 2026-05-04 00:25 | 26.38604 | 4.84639 | 38928 ft | 502 kts | 179° |
| 2026-05-04 00:25 | 26.31687 | 4.85834 | 38930 ft | 502 kts | 179° |
| 2026-05-04 00:26 | 26.24781 | 4.87024 | 38933 ft | 502 kts | 179° |
| 2026-05-04 00:26 | 26.17874 | 4.88214 | 38934 ft | 502 kts | 179° |
| 2026-05-04 00:27 | 26.10973 | 4.89402 | 38935 ft | 501 kts | 179° |
| 2026-05-04 00:27 | 26.04079 | 4.90586 | 38943 ft | 502 kts | 179° |
| 2026-05-04 00:28 | 25.97176 | 4.91770 | 38947 ft | 502 kts | 179° |
| 2026-05-04 00:28 | 25.90273 | 4.92953 | 38946 ft | 502 kts | 179° |
| 2026-05-04 00:29 | 25.83424 | 4.94126 | 38955 ft | 501 kts | 179° |
| 2026-05-04 00:29 | 25.76536 | 4.95304 | 38957 ft | 501 kts | 179° |
| 2026-05-04 00:30 | 25.69651 | 4.96480 | 38951 ft | 500 kts | 179° |
| 2026-05-04 00:30 | 25.62769 | 4.97654 | 38953 ft | 500 kts | 179° |
| 2026-05-04 00:31 | 25.55894 | 4.98825 | 38943 ft | 500 kts | 179° |
| 2026-05-04 00:31 | 25.49027 | 4.99994 | 38943 ft | 499 kts | 179° |
| 2026-05-04 00:32 | 25.42159 | 5.01161 | 38939 ft | 499 kts | 179° |
| 2026-05-04 00:32 | 25.35294 | 5.02327 | 38938 ft | 499 kts | 179° |
| 2026-05-04 00:33 | 25.25015 | 5.04070 | 38932 ft | 498 kts | 179° |
| 2026-05-04 00:34 | 25.18161 | 5.05230 | 38926 ft | 498 kts | 178° |
| 2026-05-04 00:34 | 25.11315 | 5.06389 | 38933 ft | 498 kts | 178° |
| 2026-05-04 00:35 | 25.04464 | 5.07546 | 38927 ft | 498 kts | 178° |
| 2026-05-04 00:35 | 24.97617 | 5.08701 | 38928 ft | 498 kts | 178° |
| 2026-05-04 00:36 | 24.90770 | 5.09855 | 38926 ft | 498 kts | 178° |
| 2026-05-04 00:36 | 24.83929 | 5.11008 | 38933 ft | 497 kts | 178° |
| 2026-05-04 00:37 | 24.77099 | 5.12157 | 38943 ft | 497 kts | 178° |
| 2026-05-04 00:37 | 24.70313 | 5.13297 | 38940 ft | 496 kts | 178° |
| 2026-05-04 00:38 | 24.63493 | 5.14441 | 38948 ft | 496 kts | 178° |
| 2026-05-04 00:38 | 24.56670 | 5.15585 | 38950 ft | 496 kts | 178° |
| 2026-05-04 00:39 | 24.49849 | 5.16728 | 38957 ft | 496 kts | 179° |
| 2026-05-04 00:39 | 24.43024 | 5.17868 | 38958 ft | 496 kts | 179° |
| 2026-05-04 00:40 | 24.36206 | 5.19008 | 38958 ft | 495 kts | 179° |
| 2026-05-04 00:40 | 24.29400 | 5.20144 | 38957 ft | 495 kts | 179° |
| 2026-05-04 00:41 | 24.22588 | 5.21279 | 38959 ft | 495 kts | 179° |
| 2026-05-04 00:41 | 24.15780 | 5.22413 | 38961 ft | 495 kts | 179° |
| 2026-05-04 00:42 | 24.08966 | 5.23546 | 38963 ft | 495 kts | 179° |
| 2026-05-04 00:42 | 24.02154 | 5.24678 | 38962 ft | 495 kts | 179° |
| 2026-05-04 00:43 | 23.95341 | 5.25809 | 38965 ft | 495 kts | 179° |
| 2026-05-04 00:43 | 23.88528 | 5.26939 | 38963 ft | 495 kts | 179° |
| 2026-05-04 00:44 | 23.81704 | 5.28070 | 38968 ft | 496 kts | 179° |
| 2026-05-04 00:44 | 23.74887 | 5.29198 | 38975 ft | 495 kts | 179° |
| 2026-05-04 00:45 | 23.68075 | 5.30324 | 38986 ft | 495 kts | 179° |
| 2026-05-04 00:45 | 23.61257 | 5.31449 | 38988 ft | 495 kts | 179° |
| 2026-05-04 00:46 | 23.54440 | 5.32573 | 38992 ft | 495 kts | 179° |
| 2026-05-04 00:46 | 23.47624 | 5.33697 | 38993 ft | 496 kts | 179° |
| 2026-05-04 00:47 | 23.40845 | 5.34813 | 38997 ft | 496 kts | 179° |
| 2026-05-04 00:47 | 23.33987 | 5.35940 | 39003 ft | 495 kts | 179° |
| 2026-05-04 00:48 | 23.27168 | 5.37060 | 39006 ft | 495 kts | 179° |
| 2026-05-04 00:48 | 23.20358 | 5.38177 | 39008 ft | 495 kts | 179° |
| 2026-05-04 00:49 | 23.13584 | 5.39289 | 39026 ft | 495 kts | 179° |
| 2026-05-04 00:49 | 23.06725 | 5.40411 | 39062 ft | 495 kts | 179° |
| 2026-05-04 00:50 | 22.99948 | 5.41519 | 39096 ft | 495 kts | 179° |
| 2026-05-04 00:50 | 22.93136 | 5.42632 | 39135 ft | 495 kts | 179° |
| 2026-05-04 00:51 | 22.86314 | 5.43746 | 39156 ft | 495 kts | 179° |
| 2026-05-04 00:51 | 22.79530 | 5.45300 | 39155 ft | 506 kts | 167° |
| 2026-05-04 00:52 | 22.72913 | 5.48002 | 39156 ft | 510 kts | 165° |
| 2026-05-04 00:52 | 22.66337 | 5.50898 | 39109 ft | 510 kts | 164° |
| 2026-05-04 00:53 | 22.59771 | 5.53803 | 39056 ft | 510 kts | 164° |
| 2026-05-04 00:53 | 22.53201 | 5.56681 | 38996 ft | 509 kts | 165° |
| 2026-05-04 00:54 | 22.46623 | 5.59546 | 38944 ft | 509 kts | 165° |
| 2026-05-04 00:54 | 22.40047 | 5.62405 | 38941 ft | 509 kts | 165° |
| 2026-05-04 00:55 | 22.33474 | 5.65260 | 38937 ft | 509 kts | 165° |
| 2026-05-04 00:55 | 22.26898 | 5.68114 | 38936 ft | 509 kts | 165° |
| 2026-05-04 00:56 | 22.20326 | 5.70964 | 38928 ft | 509 kts | 165° |
| 2026-05-04 00:56 | 22.13759 | 5.73807 | 38926 ft | 509 kts | 165° |
| 2026-05-04 00:57 | 22.07188 | 5.76650 | 38916 ft | 509 kts | 165° |
| 2026-05-04 00:57 | 22.00617 | 5.79491 | 38915 ft | 509 kts | 165° |
| 2026-05-04 00:58 | 21.94049 | 5.82326 | 38908 ft | 509 kts | 165° |
| 2026-05-04 00:58 | 21.88594 | 5.84680 | 38904 ft | 508 kts | 165° |
| 2026-05-04 00:59 | 21.80960 | 5.87970 | 38900 ft | 508 kts | 165° |
| 2026-05-04 00:59 | 21.74397 | 5.90796 | 38901 ft | 508 kts | 165° |
| 2026-05-04 01:00 | 21.68910 | 5.93157 | 38900 ft | 507 kts | 165° |
| 2026-05-04 01:00 | 21.62357 | 5.95973 | 38894 ft | 507 kts | 165° |
| 2026-05-04 01:01 | 21.55810 | 5.98784 | 38891 ft | 507 kts | 165° |
| 2026-05-04 01:01 | 21.49258 | 6.01593 | 38894 ft | 507 kts | 165° |
| 2026-05-04 01:02 | 21.42757 | 6.04379 | 38886 ft | 506 kts | 165° |
| 2026-05-04 01:02 | 21.36207 | 6.07184 | 38888 ft | 506 kts | 165° |
| 2026-05-04 01:03 | 21.29667 | 6.09981 | 38884 ft | 506 kts | 165° |
| 2026-05-04 01:03 | 21.23133 | 6.12773 | 38882 ft | 505 kts | 165° |
| 2026-05-04 01:04 | 21.16607 | 6.15559 | 38879 ft | 504 kts | 165° |
| 2026-05-04 01:04 | 21.10088 | 6.18340 | 38874 ft | 504 kts | 165° |
| 2026-05-04 01:05 | 21.03577 | 6.21114 | 38870 ft | 503 kts | 165° |
| 2026-05-04 01:05 | 20.97076 | 6.23880 | 38872 ft | 503 kts | 166° |
| 2026-05-04 01:06 | 20.90579 | 6.26643 | 38866 ft | 502 kts | 166° |
| 2026-05-04 01:06 | 20.84091 | 6.29399 | 38866 ft | 502 kts | 166° |
| 2026-05-04 01:07 | 20.77649 | 6.32134 | 38863 ft | 501 kts | 166° |
| 2026-05-04 01:07 | 20.71163 | 6.34884 | 38859 ft | 501 kts | 166° |
| 2026-05-04 01:08 | 20.64674 | 6.37633 | 38855 ft | 501 kts | 166° |
| 2026-05-04 01:08 | 20.58193 | 6.40377 | 38854 ft | 501 kts | 166° |
| 2026-05-04 01:09 | 20.51721 | 6.43114 | 38851 ft | 500 kts | 166° |
| 2026-05-04 01:09 | 20.45245 | 6.45850 | 38858 ft | 500 kts | 166° |
| 2026-05-04 01:10 | 20.38773 | 6.48581 | 38844 ft | 500 kts | 166° |
| 2026-05-04 01:10 | 20.32305 | 6.51310 | 38853 ft | 500 kts | 166° |
| 2026-05-04 01:11 | 20.25848 | 6.54031 | 38844 ft | 499 kts | 166° |
| 2026-05-04 01:11 | 20.19396 | 6.56738 | 38845 ft | 497 kts | 167° |
| 2026-05-04 01:12 | 20.12802 | 6.58326 | 38906 ft | 478 kts | 184° |
| 2026-05-04 01:12 | 20.09524 | 6.58297 | 39125 ft | 467 kts | 193° |
| 2026-05-04 01:12 | 20.06357 | 6.57730 | 39353 ft | 456 kts | 201° |
| 2026-05-04 01:12 | 20.03353 | 6.56731 | 39579 ft | 451 kts | 206° |
| 2026-05-04 01:13 | 20.00443 | 6.55609 | 39769 ft | 450 kts | 207° |
| 2026-05-04 01:13 | 19.94583 | 6.53209 | 39842 ft | 450 kts | 207° |
| 2026-05-04 01:14 | 19.88743 | 6.50809 | 39837 ft | 450 kts | 207° |
| 2026-05-04 01:14 | 19.82893 | 6.48444 | 39838 ft | 450 kts | 207° |
| 2026-05-04 01:15 | 19.77034 | 6.46096 | 39838 ft | 450 kts | 207° |
| 2026-05-04 01:15 | 19.71168 | 6.43749 | 39836 ft | 450 kts | 207° |
| 2026-05-04 01:16 | 19.65309 | 6.41406 | 39833 ft | 450 kts | 207° |
| 2026-05-04 01:16 | 19.59448 | 6.39063 | 39832 ft | 450 kts | 207° |
| 2026-05-04 01:17 | 19.53627 | 6.36737 | 39831 ft | 450 kts | 207° |
| 2026-05-04 01:17 | 19.47765 | 6.34397 | 39829 ft | 450 kts | 207° |
| 2026-05-04 01:18 | 19.41907 | 6.32061 | 39828 ft | 450 kts | 207° |
| 2026-05-04 01:18 | 19.36044 | 6.29724 | 39826 ft | 450 kts | 207° |
| 2026-05-04 01:19 | 19.30185 | 6.27390 | 39824 ft | 450 kts | 207° |
| 2026-05-04 01:19 | 19.24317 | 6.25055 | 39821 ft | 451 kts | 207° |
| 2026-05-04 01:20 | 19.18438 | 6.22717 | 39819 ft | 451 kts | 207° |
| 2026-05-04 01:20 | 19.12564 | 6.20383 | 39823 ft | 451 kts | 207° |
| 2026-05-04 01:21 | 19.06687 | 6.18050 | 39820 ft | 451 kts | 207° |
| 2026-05-04 01:21 | 19.00804 | 6.15716 | 39818 ft | 452 kts | 206° |
| 2026-05-04 01:22 | 18.94920 | 6.13383 | 39819 ft | 452 kts | 206° |
| 2026-05-04 01:22 | 18.89033 | 6.11052 | 39814 ft | 452 kts | 206° |
| 2026-05-04 01:23 | 18.83139 | 6.08719 | 39808 ft | 452 kts | 206° |
| 2026-05-04 01:23 | 18.77236 | 6.06383 | 39815 ft | 453 kts | 206° |
| 2026-05-04 01:24 | 18.71335 | 6.04051 | 39806 ft | 453 kts | 206° |
| 2026-05-04 01:24 | 18.65430 | 6.01719 | 39807 ft | 453 kts | 206° |
| 2026-05-04 01:25 | 18.59523 | 5.99388 | 39809 ft | 453 kts | 206° |
| 2026-05-04 01:25 | 18.53650 | 5.97072 | 39809 ft | 453 kts | 206° |
| 2026-05-04 01:26 | 18.47740 | 5.94743 | 39810 ft | 454 kts | 206° |
| 2026-05-04 01:26 | 18.41826 | 5.92414 | 39811 ft | 454 kts | 206° |
| 2026-05-04 01:27 | 18.35916 | 5.90089 | 39792 ft | 454 kts | 206° |
| 2026-05-04 01:27 | 18.30005 | 5.87764 | 39800 ft | 454 kts | 206° |
| 2026-05-04 01:28 | 18.24089 | 5.85440 | 39799 ft | 454 kts | 206° |
| 2026-05-04 01:28 | 18.18171 | 5.83116 | 39799 ft | 454 kts | 206° |
| 2026-05-04 01:29 | 18.12249 | 5.80793 | 39798 ft | 454 kts | 206° |
| 2026-05-04 01:29 | 18.06331 | 5.78473 | 39797 ft | 454 kts | 206° |
| 2026-05-04 01:30 | 18.00405 | 5.76151 | 39801 ft | 454 kts | 206° |
| 2026-05-04 01:30 | 17.94487 | 5.73834 | 39802 ft | 454 kts | 206° |
| 2026-05-04 01:31 | 17.88563 | 5.71517 | 39804 ft | 454 kts | 206° |
| 2026-05-04 01:31 | 17.82694 | 5.69104 | 39802 ft | 451 kts | 211° |
| 2026-05-04 01:32 | 17.77244 | 5.65916 | 39804 ft | 447 kts | 215° |
| 2026-05-04 01:32 | 17.71907 | 5.62556 | 39804 ft | 447 kts | 216° |
| 2026-05-04 01:33 | 17.66589 | 5.59176 | 39808 ft | 447 kts | 216° |
| 2026-05-04 01:33 | 17.61263 | 5.55806 | 39807 ft | 447 kts | 216° |
| 2026-05-04 01:34 | 17.55936 | 5.52449 | 39806 ft | 447 kts | 215° |
| 2026-05-04 01:34 | 17.50603 | 5.49094 | 39808 ft | 447 kts | 215° |
| 2026-05-04 01:35 | 17.45304 | 5.45763 | 39806 ft | 447 kts | 215° |
| 2026-05-04 01:35 | 17.39964 | 5.42407 | 39805 ft | 448 kts | 215° |
| 2026-05-04 01:36 | 17.34625 | 5.39054 | 39806 ft | 448 kts | 215° |
| 2026-05-04 01:36 | 17.29279 | 5.35699 | 39811 ft | 448 kts | 215° |
| 2026-05-04 01:37 | 17.23927 | 5.32343 | 39809 ft | 448 kts | 215° |
| 2026-05-04 01:37 | 17.18574 | 5.28989 | 39809 ft | 449 kts | 215° |
| 2026-05-04 01:38 | 17.13215 | 5.25633 | 39806 ft | 449 kts | 215° |
| 2026-05-04 01:38 | 17.07853 | 5.22277 | 39812 ft | 449 kts | 215° |
| 2026-05-04 01:39 | 17.02488 | 5.18922 | 39806 ft | 449 kts | 215° |
| 2026-05-04 01:39 | 16.97119 | 5.15566 | 39803 ft | 450 kts | 215° |
| 2026-05-04 01:40 | 16.91746 | 5.12211 | 39806 ft | 450 kts | 215° |
| 2026-05-04 01:40 | 16.86374 | 5.08858 | 39813 ft | 450 kts | 215° |
| 2026-05-04 01:41 | 16.80996 | 5.05504 | 39809 ft | 450 kts | 215° |
| 2026-05-04 01:41 | 16.75617 | 5.02151 | 39810 ft | 450 kts | 215° |
| 2026-05-04 01:42 | 16.70236 | 4.98799 | 39812 ft | 451 kts | 215° |
| 2026-05-04 01:42 | 16.64845 | 4.95443 | 39808 ft | 451 kts | 215° |
| 2026-05-04 01:43 | 16.59449 | 4.92088 | 39810 ft | 452 kts | 215° |
| 2026-05-04 01:43 | 16.54050 | 4.88731 | 39805 ft | 452 kts | 215° |
| 2026-05-04 01:44 | 16.48646 | 4.85373 | 39806 ft | 453 kts | 215° |
| 2026-05-04 01:44 | 16.43236 | 4.82015 | 39811 ft | 453 kts | 215° |
| 2026-05-04 01:45 | 16.37817 | 4.78653 | 39808 ft | 453 kts | 215° |
| 2026-05-04 01:45 | 16.29726 | 4.73638 | 39810 ft | 453 kts | 215° |
| 2026-05-04 01:46 | 16.24307 | 4.70281 | 39808 ft | 453 kts | 215° |
| 2026-05-04 01:46 | 16.18887 | 4.66926 | 39808 ft | 453 kts | 215° |
| 2026-05-04 01:47 | 16.13471 | 4.63576 | 39808 ft | 453 kts | 215° |
| 2026-05-04 01:47 | 16.08047 | 4.60223 | 39807 ft | 453 kts | 215° |
| 2026-05-04 01:48 | 16.02444 | 4.57174 | 39810 ft | 457 kts | 209° |
| 2026-05-04 01:48 | 15.97624 | 4.54911 | 39809 ft | 457 kts | 208° |
| 2026-05-04 01:49 | 15.91804 | 4.52246 | 39812 ft | 458 kts | 208° |
| 2026-05-04 01:49 | 15.85975 | 4.49583 | 39812 ft | 458 kts | 208° |
| 2026-05-04 01:50 | 15.80150 | 4.46913 | 39808 ft | 458 kts | 208° |
| 2026-05-04 01:50 | 15.74328 | 4.44240 | 39810 ft | 457 kts | 208° |
| 2026-05-04 01:51 | 15.68505 | 4.41568 | 39811 ft | 457 kts | 208° |
| 2026-05-04 01:51 | 15.62688 | 4.38900 | 39814 ft | 457 kts | 208° |
| 2026-05-04 01:52 | 15.56863 | 4.36231 | 39814 ft | 458 kts | 208° |
| 2026-05-04 01:52 | 15.51030 | 4.33560 | 39812 ft | 458 kts | 208° |
| 2026-05-04 01:53 | 15.45186 | 4.30886 | 39811 ft | 459 kts | 207° |
| 2026-05-04 01:53 | 15.39346 | 4.28215 | 39810 ft | 459 kts | 207° |
| 2026-05-04 01:54 | 15.33493 | 4.25539 | 39810 ft | 460 kts | 207° |
| 2026-05-04 01:54 | 15.27638 | 4.22865 | 39805 ft | 460 kts | 207° |
| 2026-05-04 01:55 | 15.21812 | 4.20206 | 39805 ft | 460 kts | 207° |
| 2026-05-04 01:55 | 15.15911 | 4.17514 | 39805 ft | 461 kts | 207° |
| 2026-05-04 01:56 | 15.10040 | 4.14837 | 39803 ft | 461 kts | 207° |
| 2026-05-04 01:56 | 15.04214 | 4.12182 | 39799 ft | 461 kts | 207° |
| 2026-05-04 01:57 | 14.98338 | 4.09507 | 39803 ft | 461 kts | 207° |
| 2026-05-04 01:57 | 14.92458 | 4.06831 | 39804 ft | 461 kts | 207° |
| 2026-05-04 01:58 | 14.86582 | 4.04158 | 39805 ft | 462 kts | 207° |
| 2026-05-04 01:58 | 14.80706 | 4.01487 | 39803 ft | 461 kts | 207° |
| 2026-05-04 01:59 | 14.74829 | 3.98817 | 39804 ft | 461 kts | 207° |
| 2026-05-04 01:59 | 14.68958 | 3.96151 | 39806 ft | 461 kts | 207° |
| 2026-05-04 02:00 | 14.63086 | 3.93487 | 39806 ft | 461 kts | 207° |
| 2026-05-04 02:00 | 14.57219 | 3.90826 | 39812 ft | 460 kts | 207° |
| 2026-05-04 02:01 | 14.51354 | 3.88168 | 39817 ft | 460 kts | 207° |
| 2026-05-04 02:01 | 14.45497 | 3.85515 | 39813 ft | 460 kts | 207° |
| 2026-05-04 02:02 | 14.39641 | 3.82864 | 39818 ft | 460 kts | 207° |
| 2026-05-04 02:02 | 14.33783 | 3.80213 | 39821 ft | 459 kts | 207° |
| 2026-05-04 02:03 | 14.27967 | 3.77583 | 39824 ft | 459 kts | 207° |
| 2026-05-04 02:03 | 14.22112 | 3.74937 | 39827 ft | 459 kts | 207° |
| 2026-05-04 02:04 | 14.16258 | 3.72293 | 39827 ft | 459 kts | 207° |
| 2026-05-04 02:04 | 14.10410 | 3.69653 | 39834 ft | 459 kts | 207° |
| 2026-05-04 02:05 | 14.04555 | 3.67012 | 39838 ft | 459 kts | 207° |
| 2026-05-04 02:05 | 13.98697 | 3.64369 | 39834 ft | 459 kts | 207° |
| 2026-05-04 02:06 | 13.92845 | 3.61732 | 39842 ft | 460 kts | 207° |
| 2026-05-04 02:06 | 13.86974 | 3.59088 | 39846 ft | 460 kts | 207° |
| 2026-05-04 02:07 | 13.81107 | 3.56446 | 39849 ft | 460 kts | 207° |
| 2026-05-04 02:07 | 13.75236 | 3.53805 | 39847 ft | 461 kts | 207° |
| 2026-05-04 02:08 | 13.69363 | 3.51164 | 39850 ft | 461 kts | 206° |
| 2026-05-04 02:08 | 13.63488 | 3.48524 | 39854 ft | 461 kts | 206° |
| 2026-05-04 02:09 | 13.57613 | 3.45885 | 39852 ft | 461 kts | 206° |
| 2026-05-04 02:09 | 13.51741 | 3.43234 | 39857 ft | 461 kts | 207° |
| 2026-05-04 02:10 | 13.45901 | 3.40511 | 39859 ft | 461 kts | 207° |
| 2026-05-04 02:10 | 13.40067 | 3.37776 | 39862 ft | 460 kts | 207° |
| 2026-05-04 02:11 | 13.34237 | 3.35058 | 39867 ft | 461 kts | 207° |
| 2026-05-04 02:11 | 13.28436 | 3.32363 | 39866 ft | 461 kts | 207° |
| 2026-05-04 02:12 | 13.22597 | 3.29654 | 39869 ft | 461 kts | 207° |
| 2026-05-04 02:12 | 13.16749 | 3.26942 | 39869 ft | 461 kts | 207° |
| 2026-05-04 02:13 | 13.10903 | 3.24231 | 39876 ft | 461 kts | 207° |
| 2026-05-04 02:13 | 13.05049 | 3.21519 | 39879 ft | 461 kts | 207° |
| 2026-05-04 02:14 | 12.99203 | 3.18811 | 39882 ft | 461 kts | 207° |
| 2026-05-04 02:14 | 12.93349 | 3.16101 | 39884 ft | 461 kts | 207° |
| 2026-05-04 02:15 | 12.87503 | 3.13396 | 39888 ft | 461 kts | 207° |
| 2026-05-04 02:15 | 12.81649 | 3.10689 | 39889 ft | 462 kts | 207° |
| 2026-05-04 02:16 | 12.75789 | 3.07980 | 39891 ft | 463 kts | 207° |
| 2026-05-04 02:16 | 12.69949 | 3.05282 | 39893 ft | 463 kts | 206° |
| 2026-05-04 02:17 | 12.64070 | 3.02568 | 39894 ft | 464 kts | 206° |
| 2026-05-04 02:17 | 12.58131 | 2.99827 | 39895 ft | 465 kts | 206° |
| 2026-05-04 02:18 | 12.52268 | 2.97122 | 39893 ft | 466 kts | 206° |
| 2026-05-04 02:18 | 12.46361 | 2.94399 | 39899 ft | 466 kts | 206° |
| 2026-05-04 02:19 | 12.40437 | 2.91670 | 39898 ft | 467 kts | 206° |
| 2026-05-04 02:19 | 12.34510 | 2.88940 | 39898 ft | 468 kts | 206° |
| 2026-05-04 02:20 | 12.28577 | 2.86208 | 39901 ft | 468 kts | 207° |
| 2026-05-04 02:20 | 12.22627 | 2.83471 | 39903 ft | 469 kts | 207° |
| 2026-05-04 02:21 | 12.16680 | 2.80736 | 39904 ft | 469 kts | 207° |
| 2026-05-04 02:21 | 12.10722 | 2.77997 | 39903 ft | 470 kts | 207° |
| 2026-05-04 02:22 | 12.04753 | 2.75255 | 39907 ft | 470 kts | 207° |
| 2026-05-04 02:22 | 11.98782 | 2.72513 | 39908 ft | 471 kts | 207° |
| 2026-05-04 02:23 | 11.92806 | 2.69770 | 39908 ft | 471 kts | 207° |
| 2026-05-04 02:23 | 11.86827 | 2.67027 | 39910 ft | 471 kts | 207° |
| 2026-05-04 02:24 | 11.80848 | 2.64285 | 39913 ft | 471 kts | 207° |
| 2026-05-04 02:24 | 11.74862 | 2.61541 | 39913 ft | 472 kts | 207° |
| 2026-05-04 02:25 | 11.68909 | 2.58814 | 39913 ft | 472 kts | 207° |
| 2026-05-04 02:25 | 11.62913 | 2.56068 | 39914 ft | 473 kts | 207° |
| 2026-05-04 02:26 | 11.56903 | 2.53318 | 39916 ft | 474 kts | 206° |
| 2026-05-04 02:26 | 11.50883 | 2.50564 | 39914 ft | 475 kts | 206° |
| 2026-05-04 02:27 | 11.44849 | 2.47804 | 39911 ft | 476 kts | 206° |
| 2026-05-04 02:27 | 11.38795 | 2.45038 | 39911 ft | 477 kts | 206° |
| 2026-05-04 02:28 | 11.32734 | 2.42270 | 39907 ft | 478 kts | 206° |
| 2026-05-04 02:28 | 11.26660 | 2.39496 | 39919 ft | 478 kts | 206° |
| 2026-05-04 02:29 | 11.20586 | 2.36724 | 39902 ft | 479 kts | 206° |
| 2026-05-04 02:29 | 11.14509 | 2.33952 | 39899 ft | 479 kts | 206° |
| 2026-05-04 02:30 | 11.08429 | 2.31180 | 39906 ft | 479 kts | 206° |
| 2026-05-04 02:30 | 11.02353 | 2.28382 | 39890 ft | 478 kts | 209° |
| 2026-05-04 02:31 | 10.96840 | 2.24686 | 39905 ft | 474 kts | 220° |
| 2026-05-04 02:31 | 10.91707 | 2.20465 | 39904 ft | 474 kts | 221° |
| 2026-05-04 02:32 | 10.86632 | 2.16173 | 39913 ft | 474 kts | 221° |
| 2026-05-04 02:32 | 10.81552 | 2.11887 | 39907 ft | 474 kts | 221° |
| 2026-05-04 02:33 | 10.76459 | 2.07616 | 39908 ft | 475 kts | 221° |
| 2026-05-04 02:33 | 10.71360 | 2.03350 | 39907 ft | 474 kts | 221° |
| 2026-05-04 02:34 | 10.66262 | 1.99088 | 39917 ft | 474 kts | 221° |
| 2026-05-04 02:34 | 10.61167 | 1.94829 | 39914 ft | 474 kts | 221° |
| 2026-05-04 02:35 | 10.56073 | 1.90573 | 39920 ft | 474 kts | 221° |
| 2026-05-04 02:35 | 10.51010 | 1.86344 | 39922 ft | 474 kts | 221° |
| 2026-05-04 02:36 | 10.45929 | 1.82102 | 39921 ft | 473 kts | 221° |
| 2026-05-04 02:36 | 10.40839 | 1.77854 | 39922 ft | 473 kts | 221° |
| 2026-05-04 02:37 | 10.35752 | 1.73611 | 39916 ft | 473 kts | 221° |
| 2026-05-04 02:37 | 10.31521 | 1.70083 | 39918 ft | 473 kts | 221° |
| 2026-05-04 02:38 | 10.26433 | 1.65842 | 39910 ft | 473 kts | 221° |
| 2026-05-04 02:38 | 10.21344 | 1.61602 | 39916 ft | 473 kts | 221° |
| 2026-05-04 02:39 | 10.16248 | 1.57359 | 39910 ft | 473 kts | 221° |
| 2026-05-04 02:39 | 10.11157 | 1.53121 | 39920 ft | 473 kts | 221° |
| 2026-05-04 02:40 | 10.06067 | 1.48886 | 39919 ft | 473 kts | 221° |
| 2026-05-04 02:40 | 10.00978 | 1.44653 | 39916 ft | 473 kts | 221° |
| 2026-05-04 02:41 | 9.95882 | 1.40417 | 39919 ft | 473 kts | 221° |
| 2026-05-04 02:41 | 9.90790 | 1.36184 | 39913 ft | 473 kts | 221° |
| 2026-05-04 02:42 | 9.85707 | 1.31962 | 39921 ft | 473 kts | 221° |
| 2026-05-04 02:42 | 9.80614 | 1.27733 | 39907 ft | 473 kts | 221° |
| 2026-05-04 02:43 | 9.75529 | 1.23513 | 39924 ft | 472 kts | 221° |
| 2026-05-04 02:43 | 9.70441 | 1.19291 | 39898 ft | 472 kts | 221° |
| 2026-05-04 02:44 | 9.65357 | 1.15075 | 39915 ft | 472 kts | 221° |
| 2026-05-04 02:44 | 9.60269 | 1.10858 | 39914 ft | 472 kts | 221° |
| 2026-05-04 02:45 | 9.55220 | 1.06674 | 39899 ft | 472 kts | 221° |
| 2026-05-04 02:45 | 9.50136 | 1.02463 | 39918 ft | 472 kts | 221° |
| 2026-05-04 02:46 | 9.44714 | 0.98722 | 39921 ft | 476 kts | 205° |
| 2026-05-04 02:46 | 9.38571 | 0.96211 | 39909 ft | 477 kts | 204° |
| 2026-05-04 02:47 | 9.32376 | 0.93779 | 39905 ft | 478 kts | 203° |
| 2026-05-04 02:47 | 9.26180 | 0.91353 | 39913 ft | 478 kts | 203° |
| 2026-05-04 02:48 | 9.19978 | 0.88927 | 39913 ft | 477 kts | 203° |
| 2026-05-04 02:48 | 9.13780 | 0.86504 | 39916 ft | 478 kts | 203° |
| 2026-05-04 02:49 | 9.07576 | 0.84079 | 39922 ft | 477 kts | 203° |
| 2026-05-04 02:49 | 9.01384 | 0.81661 | 39918 ft | 477 kts | 203° |
| 2026-05-04 02:50 | 8.95185 | 0.79240 | 39919 ft | 477 kts | 203° |
| 2026-05-04 02:50 | 8.88983 | 0.76819 | 39924 ft | 478 kts | 203° |
| 2026-05-04 02:51 | 8.82829 | 0.74418 | 39913 ft | 477 kts | 203° |
| 2026-05-04 02:51 | 8.76631 | 0.72000 | 39914 ft | 477 kts | 203° |
| 2026-05-04 02:52 | 8.70434 | 0.69584 | 39920 ft | 477 kts | 203° |
| 2026-05-04 02:52 | 8.64234 | 0.67167 | 39923 ft | 478 kts | 203° |
| 2026-05-04 02:53 | 8.58032 | 0.64750 | 39926 ft | 478 kts | 203° |
| 2026-05-04 02:53 | 8.51825 | 0.62333 | 39928 ft | 478 kts | 203° |
| 2026-05-04 02:54 | 8.45622 | 0.59918 | 39938 ft | 478 kts | 203° |
| 2026-05-04 02:54 | 8.39415 | 0.57502 | 39932 ft | 478 kts | 203° |
| 2026-05-04 02:55 | 8.30099 | 0.53877 | 39931 ft | 478 kts | 202° |
| 2026-05-04 02:56 | 8.23893 | 0.51464 | 39932 ft | 478 kts | 202° |
| 2026-05-04 02:56 | 8.17689 | 0.49052 | 39941 ft | 478 kts | 202° |
| 2026-05-04 02:57 | 8.11477 | 0.46638 | 39937 ft | 478 kts | 202° |
| 2026-05-04 02:57 | 8.05269 | 0.44226 | 39932 ft | 478 kts | 202° |
| 2026-05-04 02:58 | 7.99073 | 0.41820 | 39940 ft | 477 kts | 202° |
| 2026-05-04 02:58 | 7.92873 | 0.39413 | 39941 ft | 477 kts | 202° |
| 2026-05-04 02:59 | 7.86671 | 0.37005 | 39936 ft | 478 kts | 202° |
| 2026-05-04 02:59 | 7.80454 | 0.34593 | 39930 ft | 479 kts | 202° |
| 2026-05-04 03:00 | 7.74224 | 0.32177 | 39931 ft | 480 kts | 202° |
| 2026-05-04 03:00 | 7.67992 | 0.29761 | 39942 ft | 480 kts | 202° |
| 2026-05-04 03:01 | 7.61745 | 0.27339 | 39937 ft | 481 kts | 202° |
| 2026-05-04 03:01 | 7.55494 | 0.24917 | 39939 ft | 482 kts | 202° |
| 2026-05-04 03:02 | 7.49234 | 0.22491 | 39936 ft | 482 kts | 202° |
| 2026-05-04 03:02 | 7.42976 | 0.20068 | 39938 ft | 482 kts | 202° |
| 2026-05-04 03:03 | 7.36721 | 0.17646 | 39938 ft | 482 kts | 202° |
| 2026-05-04 03:03 | 7.30458 | 0.15223 | 39938 ft | 482 kts | 202° |
| 2026-05-04 03:04 | 7.24238 | 0.12816 | 39935 ft | 482 kts | 202° |
| 2026-05-04 03:04 | 7.17982 | 0.10396 | 39942 ft | 482 kts | 202° |
| 2026-05-04 03:05 | 7.11722 | 0.07975 | 39945 ft | 482 kts | 202° |
| 2026-05-04 03:05 | 7.05463 | 0.05556 | 39948 ft | 482 kts | 202° |
| 2026-05-04 03:06 | 6.99210 | 0.03139 | 39947 ft | 482 kts | 202° |
| 2026-05-04 03:06 | 6.92965 | 0.00708 | 39949 ft | 481 kts | 203° |
| 2026-05-04 03:07 | 6.86718 | -0.01731 | 39951 ft | 481 kts | 203° |
| 2026-05-04 03:07 | 6.80465 | -0.04154 | 39942 ft | 481 kts | 203° |
| 2026-05-04 03:08 | 6.74213 | -0.06570 | 39953 ft | 481 kts | 202° |
| 2026-05-04 03:08 | 6.67961 | -0.08983 | 39956 ft | 482 kts | 202° |
| 2026-05-04 03:09 | 6.61700 | -0.11404 | 39961 ft | 482 kts | 203° |
| 2026-05-04 03:09 | 6.55541 | -0.13813 | 39341 ft | 463 kts | 203° |
| 2026-05-04 03:09 | 6.52565 | -0.14979 | 38464 ft | 456 kts | 203° |
| 2026-05-04 03:10 | 6.49625 | -0.16134 | 37421 ft | 451 kts | 203° |
| 2026-05-04 03:10 | 6.46723 | -0.17278 | 36487 ft | 445 kts | 203° |
| 2026-05-04 03:10 | 6.43857 | -0.18411 | 35600 ft | 439 kts | 203° |
| 2026-05-04 03:10 | 6.41031 | -0.19531 | 34736 ft | 434 kts | 202° |
| 2026-05-04 03:11 | 6.38240 | -0.20641 | 33884 ft | 429 kts | 203° |
| 2026-05-04 03:11 | 6.35479 | -0.21742 | 32928 ft | 425 kts | 203° |
| 2026-05-04 03:11 | 6.32743 | -0.22833 | 32002 ft | 421 kts | 203° |
| 2026-05-04 03:11 | 6.30036 | -0.23913 | 31121 ft | 417 kts | 202° |
| 2026-05-04 03:12 | 6.27357 | -0.24987 | 30253 ft | 413 kts | 202° |
| 2026-05-04 03:12 | 6.24697 | -0.26060 | 29305 ft | 410 kts | 202° |
| 2026-05-04 03:12 | 6.22100 | -0.27117 | 28431 ft | 404 kts | 202° |
| 2026-05-04 03:12 | 6.19518 | -0.28175 | 27620 ft | 398 kts | 202° |
| 2026-05-04 03:13 | 6.16978 | -0.29227 | 26829 ft | 392 kts | 202° |
| 2026-05-04 03:13 | 6.14479 | -0.30270 | 26054 ft | 386 kts | 202° |
| 2026-05-04 03:13 | 6.12014 | -0.31304 | 25304 ft | 381 kts | 202° |
| 2026-05-04 03:13 | 6.09584 | -0.32329 | 24410 ft | 379 kts | 202° |
| 2026-05-04 03:14 | 6.07134 | -0.33371 | 23242 ft | 385 kts | 202° |
| 2026-05-04 03:14 | 6.04653 | -0.34447 | 21804 ft | 392 kts | 202° |
| 2026-05-04 03:14 | 6.02133 | -0.35577 | 20314 ft | 401 kts | 202° |
| 2026-05-04 03:14 | 5.99566 | -0.36771 | 18785 ft | 411 kts | 202° |
| 2026-05-04 03:15 | 5.96962 | -0.38022 | 17113 ft | 420 kts | 202° |
| 2026-05-04 03:15 | 5.94335 | -0.39298 | 15753 ft | 416 kts | 202° |
| 2026-05-04 03:15 | 5.91771 | -0.40542 | 14570 ft | 408 kts | 202° |
| 2026-05-04 03:15 | 5.89220 | -0.41779 | 13369 ft | 399 kts | 202° |
| 2026-05-04 03:16 | 5.86750 | -0.42976 | 12039 ft | 393 kts | 202° |
| 2026-05-04 03:16 | 5.84298 | -0.44165 | 10763 ft | 388 kts | 202° |
| 2026-05-04 03:16 | 5.81908 | -0.45326 | 10022 ft | 370 kts | 202° |
| 2026-05-04 03:16 | 5.79676 | -0.46420 | 9521 ft | 346 kts | 203° |
| 2026-05-04 03:17 | 5.77578 | -0.47449 | 9093 ft | 324 kts | 203° |
| 2026-05-04 03:17 | 5.75597 | -0.48418 | 8513 ft | 310 kts | 203° |
| 2026-05-04 03:17 | 5.73687 | -0.49341 | 7886 ft | 301 kts | 203° |
| 2026-05-04 03:17 | 5.71841 | -0.50220 | 7240 ft | 294 kts | 203° |
| 2026-05-04 03:18 | 5.69987 | -0.51089 | 6526 ft | 289 kts | 203° |
| 2026-05-04 03:18 | 5.68149 | -0.51927 | 5527 ft | 293 kts | 203° |
| 2026-05-04 03:18 | 5.66286 | -0.52739 | 4714 ft | 288 kts | 201° |
| 2026-05-04 03:18 | 5.64382 | -0.53099 | 4160 ft | 272 kts | 177° |
| 2026-05-04 03:19 | 5.62633 | -0.52609 | 3981 ft | 266 kts | 152° |
| 2026-05-04 03:19 | 5.61186 | -0.51454 | 3796 ft | 266 kts | 135° |
| 2026-05-04 03:19 | 5.59960 | -0.50058 | 3544 ft | 267 kts | 131° |
| 2026-05-04 03:19 | 5.58786 | -0.48614 | 3504 ft | 267 kts | 129° |
| 2026-05-04 03:20 | 5.57696 | -0.47108 | 3513 ft | 266 kts | 126° |
| 2026-05-04 03:20 | 5.56639 | -0.45562 | 3515 ft | 268 kts | 126° |
| 2026-05-04 03:20 | 5.55591 | -0.44019 | 3495 ft | 267 kts | 126° |
| 2026-05-04 03:20 | 5.54550 | -0.42483 | 3509 ft | 266 kts | 126° |
| 2026-05-04 03:21 | 5.53507 | -0.40946 | 3494 ft | 267 kts | 126° |
| 2026-05-04 03:21 | 5.52461 | -0.39407 | 3495 ft | 267 kts | 126° |
| 2026-05-04 03:21 | 5.51415 | -0.37871 | 3507 ft | 266 kts | 126° |
| 2026-05-04 03:21 | 5.51060 | -0.37348 | 3488 ft | 268 kts | 125° |
| 2026-05-04 03:22 | 5.49983 | -0.35772 | 3486 ft | 270 kts | 126° |
| 2026-05-04 03:22 | 5.48930 | -0.34231 | 3506 ft | 267 kts | 125° |
| 2026-05-04 03:22 | 5.47928 | -0.32744 | 3482 ft | 243 kts | 124° |
| 2026-05-04 03:22 | 5.47070 | -0.31393 | 3483 ft | 219 kts | 120° |
| 2026-05-04 03:23 | 5.46490 | -0.30003 | 3487 ft | 215 kts | 114° |
| 2026-05-04 03:23 | 5.45897 | -0.28618 | 3322 ft | 217 kts | 115° |
| 2026-05-04 03:23 | 5.45285 | -0.27236 | 2798 ft | 219 kts | 115° |
| 2026-05-04 03:23 | 5.44661 | -0.25827 | 2223 ft | 221 kts | 115° |
| 2026-05-04 03:24 | 5.44475 | -0.24361 | 1930 ft | 208 kts | 75° |
| 2026-05-04 03:24 | 5.45227 | -0.23229 | 1912 ft | 193 kts | 43° |
| 2026-05-04 03:24 | 5.46358 | -0.22499 | 1912 ft | 196 kts | 19° |
| 2026-05-04 03:24 | 5.47632 | -0.22064 | 1924 ft | 189 kts | 18° |
| 2026-05-04 03:25 | 5.48788 | -0.21580 | 1888 ft | 177 kts | 27° |
| 2026-05-04 03:25 | 5.49908 | -0.21095 | 1896 ft | 173 kts | 21° |
| 2026-05-04 03:25 | 5.51021 | -0.20650 | 1886 ft | 174 kts | 21° |
| 2026-05-04 03:25 | 5.52147 | -0.20191 | 1665 ft | 174 kts | 21° |
| 2026-05-04 03:26 | 5.53259 | -0.19726 | 1416 ft | 171 kts | 21° |
| 2026-05-04 03:26 | 5.54356 | -0.19271 | 1199 ft | 170 kts | 21° |
| 2026-05-04 03:26 | 5.55080 | -0.18972 | 1040 ft | 162 kts | 21° |
| 2026-05-04 03:26 | 5.56086 | -0.18555 | 827 ft | 151 kts | 22° |
| 2026-05-04 03:27 | 5.57009 | -0.18172 | 653 ft | 143 kts | 23° |
| 2026-05-04 03:27 | 5.57929 | -0.17792 | 454 ft | 142 kts | 24° |
| 2026-05-04 03:27 | 5.58838 | -0.17414 | 275 ft | 141 kts | 24° |
| 2026-05-04 03:27 | 5.59722 | -0.17053 | 219 ft | 125 kts | 21° |
| 2026-05-04 03:28 | 5.60355 | -0.16792 | 225 ft | 59 kts | 23° |
| 2026-05-04 03:28 | 5.60513 | -0.16726 | 225 ft | 0 kts | 22° |
| 2026-05-04 03:28 | 5.60530 | -0.16719 | 226 ft | 9 kts | 22° |
| 2026-05-04 03:28 | 5.60618 | -0.16683 | 227 ft | 18 kts | 21° |
| 2026-05-04 03:29 | 5.60766 | -0.16626 | 230 ft | 27 kts | 21° |
| 2026-05-04 03:29 | 5.60928 | -0.16564 | 227 ft | 20 kts | 22° |
| 2026-05-04 03:29 | 5.61066 | -0.16499 | 226 ft | 23 kts | 25° |
| 2026-05-04 03:29 | 5.61208 | -0.16449 | 226 ft | 22 kts | 25° |
| 2026-05-04 03:30 | 5.61355 | -0.16380 | 228 ft | 25 kts | 24° |
| 2026-05-04 03:30 | 5.61477 | -0.16339 | 224 ft | 0 kts | 355° |
| 2026-05-04 03:30 | 5.61499 | -0.16347 | 226 ft | 9 kts | 336° |
| 2026-05-04 03:30 | 5.61562 | -0.16407 | 224 ft | 15 kts | 290° |
| 2026-05-04 03:31 | 5.61530 | -0.16506 | 224 ft | 16 kts | 220° |
| 2026-05-04 03:31 | 5.61429 | -0.16556 | 225 ft | 16 kts | 202° |
| 2026-05-04 03:31 | 5.61322 | -0.16601 | 225 ft | 17 kts | 202° |
| 2026-05-04 03:31 | 5.61206 | -0.16649 | 226 ft | 19 kts | 202° |
| 2026-05-04 03:32 | 5.61076 | -0.16702 | 227 ft | 21 kts | 202° |
| 2026-05-04 03:32 | 5.60961 | -0.16749 | 229 ft | 16 kts | 202° |
| 2026-05-04 03:32 | 5.60848 | -0.16796 | 228 ft | 20 kts | 202° |
| 2026-05-04 03:32 | 5.60724 | -0.16848 | 227 ft | 3 kts | 203° |
| 2026-05-04 03:33 | 5.60715 | -0.16852 | 227 ft | 3 kts | 202° |
| 2026-05-04 03:33 | 5.60682 | -0.16866 | 227 ft | 7 kts | 202° |
| 2026-05-04 03:33 | 5.60622 | -0.16890 | 227 ft | 11 kts | 202° |
| 2026-05-04 03:33 | 5.60536 | -0.16925 | 225 ft | 16 kts | 202° |
| 2026-05-04 03:34 | 5.60422 | -0.16973 | 225 ft | 20 kts | 203° |
| 2026-05-04 03:34 | 5.60327 | -0.17012 | 224 ft | 0 kts | 202° |
| 2026-05-04 03:34 | 5.60300 | -0.17023 | 221 ft | 8 kts | 201° |
| 2026-05-04 03:34 | 5.60267 | -0.17044 | 223 ft | 2 kts | 226° |
| 2026-05-04 03:35 | 5.60260 | -0.17069 | 224 ft | 3 kts | 279° |
| 2026-05-04 03:35 | 5.60269 | -0.17097 | 223 ft | 5 kts | 287° |
| 2026-05-04 03:35 | 5.60274 | -0.17112 | 221 ft | 2 kts | 287° |
| 2026-05-04 03:35 | 5.60279 | -0.17128 | 220 ft | 0 kts | 289° |
| 2026-05-04 03:36 | 5.60281 | -0.17132 | 219 ft | 2 kts | 290° |
| 2026-05-04 03:36 | 5.60282 | -0.17135 | 219 ft | 0 kts | 290° |
| 2026-05-04 03:39 | 5.60274 | -0.17113 | 218 ft | 2 kts | 288° |
| 2026-05-04 03:39 | 5.60269 | -0.17096 | 219 ft | 5 kts | 288° |
| 2026-05-04 03:39 | 5.60281 | -0.17133 | 218 ft | 1 kts | 290° |
| 2026-05-04 03:39 | 5.60282 | -0.17134 | 218 ft | 1 kts | 290° |